<?xml version="1.0" encoding="UTF-8" standalone="no" ?>
<gpx xmlns="http://www.topografix.com/GPX/1/1" xmlns:xsi="http://www.w3.org/2001/XMLSchema-instance" xsi:schemaLocation="http://www.topografix.com/GPX/1/1 http://www.topografix.com/GPX/1/1/gpx.xsd" version="1.1" creator="VisuGPX - https://www.visugpx.com">
  <metadata>
    <name>Course à pied le matin</name>
  </metadata>
  <trk>
    <name><![CDATA[Course à pied le matin_1]]></name>
    <trkseg>
      <trkpt lat="46.76964" lon="-0.86072">
        <ele>132.8</ele>
        <time>2023-10-24T05:13:18Z</time>
      </trkpt>
      <trkpt lat="46.76954" lon="-0.86039">
        <ele>132.3</ele>
        <time>2023-10-24T05:13:23Z</time>
      </trkpt>
      <trkpt lat="46.76942" lon="-0.86019">
        <ele>132</ele>
        <time>2023-10-24T05:13:27Z</time>
      </trkpt>
      <trkpt lat="46.76928" lon="-0.85998">
        <ele>131.4</ele>
        <time>2023-10-24T05:13:29Z</time>
      </trkpt>
      <trkpt lat="46.76916" lon="-0.85975">
        <ele>131.1</ele>
        <time>2023-10-24T05:13:31Z</time>
      </trkpt>
      <trkpt lat="46.76905" lon="-0.8595">
        <ele>131.1</ele>
        <time>2023-10-24T05:13:34Z</time>
      </trkpt>
      <trkpt lat="46.76895" lon="-0.85923">
        <ele>131.3</ele>
        <time>2023-10-24T05:13:39Z</time>
      </trkpt>
      <trkpt lat="46.76887" lon="-0.85896">
        <ele>131.8</ele>
        <time>2023-10-24T05:13:45Z</time>
      </trkpt>
      <trkpt lat="46.7688" lon="-0.85868">
        <ele>132.5</ele>
        <time>2023-10-24T05:13:52Z</time>
      </trkpt>
      <trkpt lat="46.76873" lon="-0.85844">
        <ele>133.2</ele>
        <time>2023-10-24T05:13:59Z</time>
      </trkpt>
      <trkpt lat="46.76867" lon="-0.85819">
        <ele>134</ele>
        <time>2023-10-24T05:14:06Z</time>
      </trkpt>
      <trkpt lat="46.7686" lon="-0.85792">
        <ele>135.1</ele>
        <time>2023-10-24T05:14:14Z</time>
      </trkpt>
      <trkpt lat="46.76852" lon="-0.85768">
        <ele>136</ele>
        <time>2023-10-24T05:14:22Z</time>
      </trkpt>
      <trkpt lat="46.76843" lon="-0.85741">
        <ele>137.1</ele>
        <time>2023-10-24T05:14:31Z</time>
      </trkpt>
      <trkpt lat="46.76837" lon="-0.85715">
        <ele>137.9</ele>
        <time>2023-10-24T05:14:42Z</time>
      </trkpt>
      <trkpt lat="46.76828" lon="-0.8569">
        <ele>138.7</ele>
        <time>2023-10-24T05:14:53Z</time>
      </trkpt>
      <trkpt lat="46.7682" lon="-0.85663">
        <ele>139.5</ele>
        <time>2023-10-24T05:15:01Z</time>
      </trkpt>
      <trkpt lat="46.76813" lon="-0.85636">
        <ele>140.3</ele>
        <time>2023-10-24T05:15:09Z</time>
      </trkpt>
      <trkpt lat="46.76805" lon="-0.8561">
        <ele>140.9</ele>
        <time>2023-10-24T05:15:16Z</time>
      </trkpt>
      <trkpt lat="46.76797" lon="-0.85584">
        <ele>141.6</ele>
        <time>2023-10-24T05:15:23Z</time>
      </trkpt>
      <trkpt lat="46.7679" lon="-0.85559">
        <ele>141.8</ele>
        <time>2023-10-24T05:15:30Z</time>
      </trkpt>
      <trkpt lat="46.76791" lon="-0.85535">
        <ele>142.1</ele>
        <time>2023-10-24T05:15:37Z</time>
      </trkpt>
      <trkpt lat="46.76808" lon="-0.85523">
        <ele>142.4</ele>
        <time>2023-10-24T05:15:45Z</time>
      </trkpt>
      <trkpt lat="46.76826" lon="-0.85512">
        <ele>142.4</ele>
        <time>2023-10-24T05:15:52Z</time>
      </trkpt>
      <trkpt lat="46.76842" lon="-0.85499">
        <ele>142.4</ele>
        <time>2023-10-24T05:15:59Z</time>
      </trkpt>
      <trkpt lat="46.76858" lon="-0.85484">
        <ele>142.5</ele>
        <time>2023-10-24T05:16:07Z</time>
      </trkpt>
      <trkpt lat="46.76874" lon="-0.85472">
        <ele>142.5</ele>
        <time>2023-10-24T05:16:14Z</time>
      </trkpt>
      <trkpt lat="46.76893" lon="-0.85459">
        <ele>142.5</ele>
        <time>2023-10-24T05:16:22Z</time>
      </trkpt>
      <trkpt lat="46.7691" lon="-0.85446">
        <ele>142.6</ele>
        <time>2023-10-24T05:16:30Z</time>
      </trkpt>
      <trkpt lat="46.76927" lon="-0.85431">
        <ele>142.8</ele>
        <time>2023-10-24T05:16:37Z</time>
      </trkpt>
      <trkpt lat="46.76944" lon="-0.85418">
        <ele>142.9</ele>
        <time>2023-10-24T05:16:44Z</time>
      </trkpt>
      <trkpt lat="46.76962" lon="-0.85405">
        <ele>143</ele>
        <time>2023-10-24T05:16:52Z</time>
      </trkpt>
      <trkpt lat="46.76979" lon="-0.85391">
        <ele>143.3</ele>
        <time>2023-10-24T05:17:00Z</time>
      </trkpt>
      <trkpt lat="46.76996" lon="-0.85379">
        <ele>143.5</ele>
        <time>2023-10-24T05:17:08Z</time>
      </trkpt>
      <trkpt lat="46.77013" lon="-0.85365">
        <ele>143.7</ele>
        <time>2023-10-24T05:17:16Z</time>
      </trkpt>
      <trkpt lat="46.77026" lon="-0.85346">
        <ele>143.9</ele>
        <time>2023-10-24T05:17:23Z</time>
      </trkpt>
      <trkpt lat="46.77039" lon="-0.85326">
        <ele>143.9</ele>
        <time>2023-10-24T05:17:30Z</time>
      </trkpt>
      <trkpt lat="46.77049" lon="-0.85312">
        <ele>143.8</ele>
        <time>2023-10-24T05:17:40Z</time>
      </trkpt>
      <trkpt lat="46.77062" lon="-0.8529">
        <ele>143.2</ele>
        <time>2023-10-24T05:17:47Z</time>
      </trkpt>
      <trkpt lat="46.77075" lon="-0.85268">
        <ele>142.1</ele>
        <time>2023-10-24T05:17:54Z</time>
      </trkpt>
      <trkpt lat="46.7709" lon="-0.85252">
        <ele>140.9</ele>
        <time>2023-10-24T05:18:00Z</time>
      </trkpt>
      <trkpt lat="46.77105" lon="-0.85237">
        <ele>139.4</ele>
        <time>2023-10-24T05:18:06Z</time>
      </trkpt>
      <trkpt lat="46.7712" lon="-0.85222">
        <ele>138.1</ele>
        <time>2023-10-24T05:18:12Z</time>
      </trkpt>
      <trkpt lat="46.77136" lon="-0.85207">
        <ele>136.9</ele>
        <time>2023-10-24T05:18:19Z</time>
      </trkpt>
      <trkpt lat="46.77151" lon="-0.85188">
        <ele>135.8</ele>
        <time>2023-10-24T05:18:26Z</time>
      </trkpt>
      <trkpt lat="46.77165" lon="-0.85166">
        <ele>135.4</ele>
        <time>2023-10-24T05:18:33Z</time>
      </trkpt>
      <trkpt lat="46.77178" lon="-0.85145">
        <ele>135.5</ele>
        <time>2023-10-24T05:18:40Z</time>
      </trkpt>
      <trkpt lat="46.77187" lon="-0.85122">
        <ele>135.9</ele>
        <time>2023-10-24T05:18:47Z</time>
      </trkpt>
      <trkpt lat="46.77196" lon="-0.85097">
        <ele>136.6</ele>
        <time>2023-10-24T05:18:54Z</time>
      </trkpt>
      <trkpt lat="46.77203" lon="-0.85072">
        <ele>137.5</ele>
        <time>2023-10-24T05:19:01Z</time>
      </trkpt>
      <trkpt lat="46.77212" lon="-0.85048">
        <ele>138</ele>
        <time>2023-10-24T05:19:08Z</time>
      </trkpt>
      <trkpt lat="46.77221" lon="-0.85024">
        <ele>138.6</ele>
        <time>2023-10-24T05:19:15Z</time>
      </trkpt>
      <trkpt lat="46.77232" lon="-0.84999">
        <ele>139.2</ele>
        <time>2023-10-24T05:19:22Z</time>
      </trkpt>
      <trkpt lat="46.77248" lon="-0.84982">
        <ele>139.8</ele>
        <time>2023-10-24T05:19:29Z</time>
      </trkpt>
      <trkpt lat="46.77262" lon="-0.84964">
        <ele>140.4</ele>
        <time>2023-10-24T05:19:36Z</time>
      </trkpt>
      <trkpt lat="46.77275" lon="-0.84944">
        <ele>141.2</ele>
        <time>2023-10-24T05:19:43Z</time>
      </trkpt>
      <trkpt lat="46.77288" lon="-0.84921">
        <ele>142</ele>
        <time>2023-10-24T05:19:51Z</time>
      </trkpt>
      <trkpt lat="46.77302" lon="-0.84898">
        <ele>143</ele>
        <time>2023-10-24T05:19:59Z</time>
      </trkpt>
      <trkpt lat="46.77314" lon="-0.84879">
        <ele>143.9</ele>
        <time>2023-10-24T05:20:06Z</time>
      </trkpt>
      <trkpt lat="46.77327" lon="-0.84857">
        <ele>144.8</ele>
        <time>2023-10-24T05:20:14Z</time>
      </trkpt>
      <trkpt lat="46.77342" lon="-0.84839">
        <ele>145.5</ele>
        <time>2023-10-24T05:20:21Z</time>
      </trkpt>
      <trkpt lat="46.77354" lon="-0.8482">
        <ele>146.4</ele>
        <time>2023-10-24T05:20:28Z</time>
      </trkpt>
      <trkpt lat="46.77364" lon="-0.84796">
        <ele>147.4</ele>
        <time>2023-10-24T05:20:36Z</time>
      </trkpt>
      <trkpt lat="46.77368" lon="-0.84768">
        <ele>148</ele>
        <time>2023-10-24T05:20:43Z</time>
      </trkpt>
      <trkpt lat="46.77368" lon="-0.84762">
        <ele>148.1</ele>
        <time>2023-10-24T05:20:45Z</time>
      </trkpt>
      <trkpt lat="46.77372" lon="-0.84757">
        <ele>148.2</ele>
        <time>2023-10-24T05:20:51Z</time>
      </trkpt>
      <trkpt lat="46.77374" lon="-0.84755">
        <ele>148.3</ele>
        <time>2023-10-24T05:20:52Z</time>
      </trkpt>
      <trkpt lat="46.77393" lon="-0.84756">
        <ele>149</ele>
        <time>2023-10-24T05:21:00Z</time>
      </trkpt>
      <trkpt lat="46.77411" lon="-0.84747">
        <ele>149.5</ele>
        <time>2023-10-24T05:21:08Z</time>
      </trkpt>
      <trkpt lat="46.77425" lon="-0.84728">
        <ele>150.4</ele>
        <time>2023-10-24T05:21:16Z</time>
      </trkpt>
      <trkpt lat="46.77439" lon="-0.84707">
        <ele>151.5</ele>
        <time>2023-10-24T05:21:24Z</time>
      </trkpt>
      <trkpt lat="46.77452" lon="-0.84686">
        <ele>152.6</ele>
        <time>2023-10-24T05:21:32Z</time>
      </trkpt>
      <trkpt lat="46.77463" lon="-0.84666">
        <ele>154.5</ele>
        <time>2023-10-24T05:21:40Z</time>
      </trkpt>
      <trkpt lat="46.77476" lon="-0.84646">
        <ele>156.4</ele>
        <time>2023-10-24T05:21:48Z</time>
      </trkpt>
      <trkpt lat="46.77487" lon="-0.84626">
        <ele>157.9</ele>
        <time>2023-10-24T05:21:56Z</time>
      </trkpt>
      <trkpt lat="46.77497" lon="-0.84603">
        <ele>159</ele>
        <time>2023-10-24T05:22:04Z</time>
      </trkpt>
      <trkpt lat="46.77505" lon="-0.84578">
        <ele>160.5</ele>
        <time>2023-10-24T05:22:12Z</time>
      </trkpt>
      <trkpt lat="46.77509" lon="-0.8455">
        <ele>162</ele>
        <time>2023-10-24T05:22:20Z</time>
      </trkpt>
      <trkpt lat="46.77514" lon="-0.84525">
        <ele>162.8</ele>
        <time>2023-10-24T05:22:27Z</time>
      </trkpt>
      <trkpt lat="46.77529" lon="-0.8451">
        <ele>163.4</ele>
        <time>2023-10-24T05:22:34Z</time>
      </trkpt>
      <trkpt lat="46.77548" lon="-0.84499">
        <ele>164</ele>
        <time>2023-10-24T05:22:42Z</time>
      </trkpt>
      <trkpt lat="46.77563" lon="-0.8448">
        <ele>164.9</ele>
        <time>2023-10-24T05:22:51Z</time>
      </trkpt>
      <trkpt lat="46.77578" lon="-0.84463">
        <ele>165.9</ele>
        <time>2023-10-24T05:22:59Z</time>
      </trkpt>
      <trkpt lat="46.77592" lon="-0.84446">
        <ele>166.8</ele>
        <time>2023-10-24T05:23:06Z</time>
      </trkpt>
      <trkpt lat="46.77607" lon="-0.8443">
        <ele>168.1</ele>
        <time>2023-10-24T05:23:13Z</time>
      </trkpt>
      <trkpt lat="46.77623" lon="-0.84411">
        <ele>169.6</ele>
        <time>2023-10-24T05:23:22Z</time>
      </trkpt>
      <trkpt lat="46.77637" lon="-0.84395">
        <ele>170.4</ele>
        <time>2023-10-24T05:23:29Z</time>
      </trkpt>
      <trkpt lat="46.77652" lon="-0.8438">
        <ele>170.9</ele>
        <time>2023-10-24T05:23:36Z</time>
      </trkpt>
      <trkpt lat="46.77671" lon="-0.84365">
        <ele>171.8</ele>
        <time>2023-10-24T05:23:43Z</time>
      </trkpt>
      <trkpt lat="46.77687" lon="-0.84349">
        <ele>172.7</ele>
        <time>2023-10-24T05:23:50Z</time>
      </trkpt>
      <trkpt lat="46.77701" lon="-0.84332">
        <ele>173.6</ele>
        <time>2023-10-24T05:23:57Z</time>
      </trkpt>
      <trkpt lat="46.77715" lon="-0.8431">
        <ele>174.8</ele>
        <time>2023-10-24T05:24:05Z</time>
      </trkpt>
      <trkpt lat="46.7773" lon="-0.8429">
        <ele>176.1</ele>
        <time>2023-10-24T05:24:13Z</time>
      </trkpt>
      <trkpt lat="46.77745" lon="-0.84274">
        <ele>177</ele>
        <time>2023-10-24T05:24:21Z</time>
      </trkpt>
      <trkpt lat="46.77762" lon="-0.8426">
        <ele>179</ele>
        <time>2023-10-24T05:24:30Z</time>
      </trkpt>
      <trkpt lat="46.77778" lon="-0.84242">
        <ele>181.1</ele>
        <time>2023-10-24T05:24:38Z</time>
      </trkpt>
      <trkpt lat="46.77783" lon="-0.84215">
        <ele>182</ele>
        <time>2023-10-24T05:24:46Z</time>
      </trkpt>
      <trkpt lat="46.77787" lon="-0.84189">
        <ele>183.1</ele>
        <time>2023-10-24T05:24:53Z</time>
      </trkpt>
      <trkpt lat="46.77797" lon="-0.84164">
        <ele>184</ele>
        <time>2023-10-24T05:25:01Z</time>
      </trkpt>
      <trkpt lat="46.77804" lon="-0.84138">
        <ele>184.4</ele>
        <time>2023-10-24T05:25:09Z</time>
      </trkpt>
      <trkpt lat="46.77814" lon="-0.84113">
        <ele>185.7</ele>
        <time>2023-10-24T05:25:17Z</time>
      </trkpt>
      <trkpt lat="46.77826" lon="-0.8409">
        <ele>187</ele>
        <time>2023-10-24T05:25:25Z</time>
      </trkpt>
      <trkpt lat="46.77838" lon="-0.8407">
        <ele>188.2</ele>
        <time>2023-10-24T05:25:33Z</time>
      </trkpt>
      <trkpt lat="46.77849" lon="-0.84049">
        <ele>189.4</ele>
        <time>2023-10-24T05:25:41Z</time>
      </trkpt>
      <trkpt lat="46.77864" lon="-0.84032">
        <ele>190.6</ele>
        <time>2023-10-24T05:25:49Z</time>
      </trkpt>
      <trkpt lat="46.7788" lon="-0.84016">
        <ele>191.4</ele>
        <time>2023-10-24T05:25:57Z</time>
      </trkpt>
      <trkpt lat="46.77896" lon="-0.84001">
        <ele>192</ele>
        <time>2023-10-24T05:26:04Z</time>
      </trkpt>
      <trkpt lat="46.77913" lon="-0.83989">
        <ele>192.6</ele>
        <time>2023-10-24T05:26:11Z</time>
      </trkpt>
      <trkpt lat="46.77931" lon="-0.83976">
        <ele>193.1</ele>
        <time>2023-10-24T05:26:18Z</time>
      </trkpt>
      <trkpt lat="46.77948" lon="-0.83967">
        <ele>193.6</ele>
        <time>2023-10-24T05:26:25Z</time>
      </trkpt>
      <trkpt lat="46.77966" lon="-0.8396">
        <ele>194.2</ele>
        <time>2023-10-24T05:26:33Z</time>
      </trkpt>
      <trkpt lat="46.77986" lon="-0.83955">
        <ele>194.9</ele>
        <time>2023-10-24T05:26:41Z</time>
      </trkpt>
      <trkpt lat="46.78005" lon="-0.83947">
        <ele>195.7</ele>
        <time>2023-10-24T05:26:49Z</time>
      </trkpt>
      <trkpt lat="46.78024" lon="-0.83944">
        <ele>196.4</ele>
        <time>2023-10-24T05:26:56Z</time>
      </trkpt>
      <trkpt lat="46.78042" lon="-0.83938">
        <ele>197.1</ele>
        <time>2023-10-24T05:27:03Z</time>
      </trkpt>
      <trkpt lat="46.78059" lon="-0.83932">
        <ele>197.6</ele>
        <time>2023-10-24T05:27:10Z</time>
      </trkpt>
      <trkpt lat="46.78079" lon="-0.83925">
        <ele>198.1</ele>
        <time>2023-10-24T05:27:18Z</time>
      </trkpt>
      <trkpt lat="46.78094" lon="-0.83913">
        <ele>198.5</ele>
        <time>2023-10-24T05:27:25Z</time>
      </trkpt>
      <trkpt lat="46.78112" lon="-0.839">
        <ele>199.1</ele>
        <time>2023-10-24T05:27:33Z</time>
      </trkpt>
      <trkpt lat="46.78127" lon="-0.83883">
        <ele>199.8</ele>
        <time>2023-10-24T05:27:42Z</time>
      </trkpt>
      <trkpt lat="46.7814" lon="-0.83862">
        <ele>200.8</ele>
        <time>2023-10-24T05:27:48Z</time>
      </trkpt>
      <trkpt lat="46.78147" lon="-0.83837">
        <ele>201.9</ele>
        <time>2023-10-24T05:27:55Z</time>
      </trkpt>
      <trkpt lat="46.78139" lon="-0.8381">
        <ele>199.6</ele>
        <time>2023-10-24T05:28:02Z</time>
      </trkpt>
      <trkpt lat="46.7813" lon="-0.83783">
        <ele>197.9</ele>
        <time>2023-10-24T05:28:09Z</time>
      </trkpt>
      <trkpt lat="46.78122" lon="-0.83756">
        <ele>196.4</ele>
        <time>2023-10-24T05:28:16Z</time>
      </trkpt>
      <trkpt lat="46.78113" lon="-0.8373">
        <ele>194.9</ele>
        <time>2023-10-24T05:28:22Z</time>
      </trkpt>
      <trkpt lat="46.78105" lon="-0.83706">
        <ele>193.6</ele>
        <time>2023-10-24T05:28:28Z</time>
      </trkpt>
      <trkpt lat="46.78098" lon="-0.8368">
        <ele>192</ele>
        <time>2023-10-24T05:28:35Z</time>
      </trkpt>
      <trkpt lat="46.78085" lon="-0.83657">
        <ele>189.8</ele>
        <time>2023-10-24T05:28:42Z</time>
      </trkpt>
      <trkpt lat="46.78072" lon="-0.83638">
        <ele>187.5</ele>
        <time>2023-10-24T05:28:48Z</time>
      </trkpt>
      <trkpt lat="46.78058" lon="-0.83621">
        <ele>185.3</ele>
        <time>2023-10-24T05:28:54Z</time>
      </trkpt>
      <trkpt lat="46.78046" lon="-0.836">
        <ele>183.2</ele>
        <time>2023-10-24T05:29:01Z</time>
      </trkpt>
      <trkpt lat="46.78028" lon="-0.83591">
        <ele>180.8</ele>
        <time>2023-10-24T05:29:08Z</time>
      </trkpt>
      <trkpt lat="46.78012" lon="-0.83574">
        <ele>178.9</ele>
        <time>2023-10-24T05:29:15Z</time>
      </trkpt>
      <trkpt lat="46.77995" lon="-0.83561">
        <ele>177.2</ele>
        <time>2023-10-24T05:29:21Z</time>
      </trkpt>
      <trkpt lat="46.77979" lon="-0.83546">
        <ele>175.8</ele>
        <time>2023-10-24T05:29:27Z</time>
      </trkpt>
      <trkpt lat="46.77962" lon="-0.83531">
        <ele>174.5</ele>
        <time>2023-10-24T05:29:33Z</time>
      </trkpt>
      <trkpt lat="46.77951" lon="-0.83506">
        <ele>173.6</ele>
        <time>2023-10-24T05:29:40Z</time>
      </trkpt>
      <trkpt lat="46.7794" lon="-0.83484">
        <ele>173.3</ele>
        <time>2023-10-24T05:29:46Z</time>
      </trkpt>
      <trkpt lat="46.77932" lon="-0.83458">
        <ele>173.1</ele>
        <time>2023-10-24T05:29:53Z</time>
      </trkpt>
      <trkpt lat="46.77931" lon="-0.83432">
        <ele>173.4</ele>
        <time>2023-10-24T05:30:00Z</time>
      </trkpt>
      <trkpt lat="46.77925" lon="-0.83404">
        <ele>173.8</ele>
        <time>2023-10-24T05:30:08Z</time>
      </trkpt>
      <trkpt lat="46.77932" lon="-0.83378">
        <ele>175</ele>
        <time>2023-10-24T05:30:15Z</time>
      </trkpt>
      <trkpt lat="46.77943" lon="-0.83363">
        <ele>175.3</ele>
        <time>2023-10-24T05:30:23Z</time>
      </trkpt>
      <trkpt lat="46.77959" lon="-0.83378">
        <ele>177.6</ele>
        <time>2023-10-24T05:31:07Z</time>
      </trkpt>
      <trkpt lat="46.77973" lon="-0.83384">
        <ele>178.1</ele>
        <time>2023-10-24T05:31:15Z</time>
      </trkpt>
      <trkpt lat="46.77975" lon="-0.83393">
        <ele>178</ele>
        <time>2023-10-24T05:31:19Z</time>
      </trkpt>
      <trkpt lat="46.77991" lon="-0.83407">
        <ele>178</ele>
        <time>2023-10-24T05:31:27Z</time>
      </trkpt>
      <trkpt lat="46.77997" lon="-0.83412">
        <ele>178</ele>
        <time>2023-10-24T05:31:44Z</time>
      </trkpt>
      <trkpt lat="46.78012" lon="-0.83428">
        <ele>178</ele>
        <time>2023-10-24T05:31:59Z</time>
      </trkpt>
      <trkpt lat="46.78028" lon="-0.8344">
        <ele>178</ele>
        <time>2023-10-24T05:32:12Z</time>
      </trkpt>
      <trkpt lat="46.78043" lon="-0.83455">
        <ele>178</ele>
        <time>2023-10-24T05:32:27Z</time>
      </trkpt>
      <trkpt lat="46.7806" lon="-0.83468">
        <ele>178</ele>
        <time>2023-10-24T05:32:47Z</time>
      </trkpt>
      <trkpt lat="46.7807" lon="-0.83475">
        <ele>178</ele>
        <time>2023-10-24T05:32:59Z</time>
      </trkpt>
      <trkpt lat="46.78055" lon="-0.83458">
        <ele>178</ele>
        <time>2023-10-24T05:33:11Z</time>
      </trkpt>
      <trkpt lat="46.78038" lon="-0.83444">
        <ele>178</ele>
        <time>2023-10-24T05:33:22Z</time>
      </trkpt>
      <trkpt lat="46.78023" lon="-0.83429">
        <ele>178</ele>
        <time>2023-10-24T05:33:33Z</time>
      </trkpt>
      <trkpt lat="46.78007" lon="-0.83414">
        <ele>178</ele>
        <time>2023-10-24T05:33:47Z</time>
      </trkpt>
      <trkpt lat="46.77991" lon="-0.83399">
        <ele>178</ele>
        <time>2023-10-24T05:34:02Z</time>
      </trkpt>
      <trkpt lat="46.77983" lon="-0.83389">
        <ele>178</ele>
        <time>2023-10-24T05:34:11Z</time>
      </trkpt>
      <trkpt lat="46.77986" lon="-0.83395">
        <ele>178</ele>
        <time>2023-10-24T05:34:16Z</time>
      </trkpt>
      <trkpt lat="46.77991" lon="-0.83404">
        <ele>178</ele>
        <time>2023-10-24T05:34:21Z</time>
      </trkpt>
      <trkpt lat="46.77992" lon="-0.83408">
        <ele>178</ele>
        <time>2023-10-24T05:34:46Z</time>
      </trkpt>
      <trkpt lat="46.77997" lon="-0.83414">
        <ele>178</ele>
        <time>2023-10-24T05:34:49Z</time>
      </trkpt>
      <trkpt lat="46.78016" lon="-0.8343">
        <ele>178</ele>
        <time>2023-10-24T05:34:55Z</time>
      </trkpt>
      <trkpt lat="46.78033" lon="-0.83446">
        <ele>178</ele>
        <time>2023-10-24T05:34:59Z</time>
      </trkpt>
      <trkpt lat="46.78052" lon="-0.83464">
        <ele>178</ele>
        <time>2023-10-24T05:35:03Z</time>
      </trkpt>
      <trkpt lat="46.7807" lon="-0.83478">
        <ele>178</ele>
        <time>2023-10-24T05:35:07Z</time>
      </trkpt>
      <trkpt lat="46.7808" lon="-0.83485">
        <ele>178</ele>
        <time>2023-10-24T05:35:14Z</time>
      </trkpt>
      <trkpt lat="46.78077" lon="-0.83483">
        <ele>178</ele>
        <time>2023-10-24T05:35:16Z</time>
      </trkpt>
      <trkpt lat="46.78061" lon="-0.83466">
        <ele>177.7</ele>
        <time>2023-10-24T05:35:23Z</time>
      </trkpt>
      <trkpt lat="46.78044" lon="-0.83449">
        <ele>177.7</ele>
        <time>2023-10-24T05:35:28Z</time>
      </trkpt>
      <trkpt lat="46.78028" lon="-0.83433">
        <ele>177.8</ele>
        <time>2023-10-24T05:35:32Z</time>
      </trkpt>
      <trkpt lat="46.78009" lon="-0.83413">
        <ele>177.8</ele>
        <time>2023-10-24T05:35:36Z</time>
      </trkpt>
      <trkpt lat="46.77991" lon="-0.83395">
        <ele>178</ele>
        <time>2023-10-24T05:35:40Z</time>
      </trkpt>
      <trkpt lat="46.77981" lon="-0.83386">
        <ele>178.1</ele>
        <time>2023-10-24T05:35:43Z</time>
      </trkpt>
      <trkpt lat="46.77978" lon="-0.83381">
        <ele>178.1</ele>
        <time>2023-10-24T05:35:46Z</time>
      </trkpt>
      <trkpt lat="46.77979" lon="-0.83384">
        <ele>178.1</ele>
        <time>2023-10-24T05:35:48Z</time>
      </trkpt>
      <trkpt lat="46.77993" lon="-0.83403">
        <ele>178.2</ele>
        <time>2023-10-24T05:35:58Z</time>
      </trkpt>
      <trkpt lat="46.77996" lon="-0.834">
        <ele>178.2</ele>
        <time>2023-10-24T05:36:26Z</time>
      </trkpt>
      <trkpt lat="46.77996" lon="-0.834">
        <ele>178.2</ele>
        <time>2023-10-24T05:36:31Z</time>
      </trkpt>
      <trkpt lat="46.7799" lon="-0.83391">
        <ele>178.3</ele>
        <time>2023-10-24T05:36:34Z</time>
      </trkpt>
      <trkpt lat="46.77985" lon="-0.83378">
        <ele>178.3</ele>
        <time>2023-10-24T05:36:36Z</time>
      </trkpt>
      <trkpt lat="46.77983" lon="-0.83362">
        <ele>178.3</ele>
        <time>2023-10-24T05:36:38Z</time>
      </trkpt>
      <trkpt lat="46.77984" lon="-0.83346">
        <ele>178.3</ele>
        <time>2023-10-24T05:36:40Z</time>
      </trkpt>
      <trkpt lat="46.77988" lon="-0.83332">
        <ele>178.3</ele>
        <time>2023-10-24T05:36:42Z</time>
      </trkpt>
      <trkpt lat="46.77993" lon="-0.8332">
        <ele>178.4</ele>
        <time>2023-10-24T05:36:44Z</time>
      </trkpt>
      <trkpt lat="46.78001" lon="-0.8331">
        <ele>178.4</ele>
        <time>2023-10-24T05:36:46Z</time>
      </trkpt>
      <trkpt lat="46.7801" lon="-0.83304">
        <ele>178.2</ele>
        <time>2023-10-24T05:36:48Z</time>
      </trkpt>
      <trkpt lat="46.78019" lon="-0.83302">
        <ele>178.2</ele>
        <time>2023-10-24T05:36:50Z</time>
      </trkpt>
      <trkpt lat="46.78029" lon="-0.83304">
        <ele>178.1</ele>
        <time>2023-10-24T05:36:52Z</time>
      </trkpt>
      <trkpt lat="46.78048" lon="-0.83319">
        <ele>178</ele>
        <time>2023-10-24T05:36:56Z</time>
      </trkpt>
      <trkpt lat="46.78065" lon="-0.83335">
        <ele>177.9</ele>
        <time>2023-10-24T05:37:00Z</time>
      </trkpt>
      <trkpt lat="46.78082" lon="-0.83352">
        <ele>177.9</ele>
        <time>2023-10-24T05:37:04Z</time>
      </trkpt>
      <trkpt lat="46.78095" lon="-0.83365">
        <ele>177.9</ele>
        <time>2023-10-24T05:37:07Z</time>
      </trkpt>
      <trkpt lat="46.7811" lon="-0.83385">
        <ele>177.9</ele>
        <time>2023-10-24T05:37:11Z</time>
      </trkpt>
      <trkpt lat="46.78114" lon="-0.83397">
        <ele>177.8</ele>
        <time>2023-10-24T05:37:13Z</time>
      </trkpt>
      <trkpt lat="46.78115" lon="-0.8341">
        <ele>177.8</ele>
        <time>2023-10-24T05:37:15Z</time>
      </trkpt>
      <trkpt lat="46.78112" lon="-0.83423">
        <ele>177.8</ele>
        <time>2023-10-24T05:37:17Z</time>
      </trkpt>
      <trkpt lat="46.78107" lon="-0.83435">
        <ele>177.8</ele>
        <time>2023-10-24T05:37:19Z</time>
      </trkpt>
      <trkpt lat="46.78092" lon="-0.83456">
        <ele>177.8</ele>
        <time>2023-10-24T05:37:23Z</time>
      </trkpt>
      <trkpt lat="46.78083" lon="-0.83462">
        <ele>177.7</ele>
        <time>2023-10-24T05:37:25Z</time>
      </trkpt>
      <trkpt lat="46.78073" lon="-0.83465">
        <ele>177.7</ele>
        <time>2023-10-24T05:37:27Z</time>
      </trkpt>
      <trkpt lat="46.78064" lon="-0.83463">
        <ele>177.7</ele>
        <time>2023-10-24T05:37:29Z</time>
      </trkpt>
      <trkpt lat="46.78055" lon="-0.83456">
        <ele>177.6</ele>
        <time>2023-10-24T05:37:31Z</time>
      </trkpt>
      <trkpt lat="46.78038" lon="-0.83438">
        <ele>177.8</ele>
        <time>2023-10-24T05:37:35Z</time>
      </trkpt>
      <trkpt lat="46.7802" lon="-0.83421">
        <ele>177.8</ele>
        <time>2023-10-24T05:37:39Z</time>
      </trkpt>
      <trkpt lat="46.78003" lon="-0.83404">
        <ele>178</ele>
        <time>2023-10-24T05:37:43Z</time>
      </trkpt>
      <trkpt lat="46.77991" lon="-0.83393">
        <ele>178.2</ele>
        <time>2023-10-24T05:37:46Z</time>
      </trkpt>
      <trkpt lat="46.77982" lon="-0.83376">
        <ele>178.2</ele>
        <time>2023-10-24T05:37:49Z</time>
      </trkpt>
      <trkpt lat="46.7798" lon="-0.83362">
        <ele>178.3</ele>
        <time>2023-10-24T05:37:51Z</time>
      </trkpt>
      <trkpt lat="46.7798" lon="-0.83348">
        <ele>178.3</ele>
        <time>2023-10-24T05:37:53Z</time>
      </trkpt>
      <trkpt lat="46.77984" lon="-0.83335">
        <ele>178.3</ele>
        <time>2023-10-24T05:37:55Z</time>
      </trkpt>
      <trkpt lat="46.77989" lon="-0.83323">
        <ele>178.3</ele>
        <time>2023-10-24T05:37:57Z</time>
      </trkpt>
      <trkpt lat="46.77996" lon="-0.83313">
        <ele>178.4</ele>
        <time>2023-10-24T05:37:59Z</time>
      </trkpt>
      <trkpt lat="46.78004" lon="-0.83305">
        <ele>178.3</ele>
        <time>2023-10-24T05:38:01Z</time>
      </trkpt>
      <trkpt lat="46.78013" lon="-0.83301">
        <ele>178.2</ele>
        <time>2023-10-24T05:38:03Z</time>
      </trkpt>
      <trkpt lat="46.78023" lon="-0.83302">
        <ele>178.2</ele>
        <time>2023-10-24T05:38:05Z</time>
      </trkpt>
      <trkpt lat="46.78033" lon="-0.83306">
        <ele>178.1</ele>
        <time>2023-10-24T05:38:07Z</time>
      </trkpt>
      <trkpt lat="46.7805" lon="-0.83321">
        <ele>178</ele>
        <time>2023-10-24T05:38:11Z</time>
      </trkpt>
      <trkpt lat="46.78066" lon="-0.83337">
        <ele>177.9</ele>
        <time>2023-10-24T05:38:15Z</time>
      </trkpt>
      <trkpt lat="46.78082" lon="-0.83352">
        <ele>177.9</ele>
        <time>2023-10-24T05:38:19Z</time>
      </trkpt>
      <trkpt lat="46.78098" lon="-0.83367">
        <ele>177.9</ele>
        <time>2023-10-24T05:38:23Z</time>
      </trkpt>
      <trkpt lat="46.78108" lon="-0.8338">
        <ele>177.9</ele>
        <time>2023-10-24T05:38:26Z</time>
      </trkpt>
      <trkpt lat="46.78112" lon="-0.83391">
        <ele>177.9</ele>
        <time>2023-10-24T05:38:28Z</time>
      </trkpt>
      <trkpt lat="46.78114" lon="-0.83403">
        <ele>177.8</ele>
        <time>2023-10-24T05:38:30Z</time>
      </trkpt>
      <trkpt lat="46.78114" lon="-0.83415">
        <ele>177.8</ele>
        <time>2023-10-24T05:38:32Z</time>
      </trkpt>
      <trkpt lat="46.7811" lon="-0.83427">
        <ele>177.8</ele>
        <time>2023-10-24T05:38:34Z</time>
      </trkpt>
      <trkpt lat="46.78098" lon="-0.83448">
        <ele>177.8</ele>
        <time>2023-10-24T05:38:38Z</time>
      </trkpt>
      <trkpt lat="46.78086" lon="-0.8346">
        <ele>177.7</ele>
        <time>2023-10-24T05:38:41Z</time>
      </trkpt>
      <trkpt lat="46.78077" lon="-0.83464">
        <ele>177.7</ele>
        <time>2023-10-24T05:38:43Z</time>
      </trkpt>
      <trkpt lat="46.78068" lon="-0.83464">
        <ele>177.7</ele>
        <time>2023-10-24T05:38:45Z</time>
      </trkpt>
      <trkpt lat="46.78059" lon="-0.83459">
        <ele>177.6</ele>
        <time>2023-10-24T05:38:47Z</time>
      </trkpt>
      <trkpt lat="46.78043" lon="-0.83443">
        <ele>177.7</ele>
        <time>2023-10-24T05:38:51Z</time>
      </trkpt>
      <trkpt lat="46.78026" lon="-0.83426">
        <ele>177.8</ele>
        <time>2023-10-24T05:38:55Z</time>
      </trkpt>
      <trkpt lat="46.78009" lon="-0.8341">
        <ele>177.9</ele>
        <time>2023-10-24T05:38:59Z</time>
      </trkpt>
      <trkpt lat="46.77998" lon="-0.834">
        <ele>178</ele>
        <time>2023-10-24T05:39:02Z</time>
      </trkpt>
      <trkpt lat="46.77982" lon="-0.83385">
        <ele>178.2</ele>
        <time>2023-10-24T05:39:07Z</time>
      </trkpt>
      <trkpt lat="46.77977" lon="-0.83385">
        <ele>178.2</ele>
        <time>2023-10-24T05:39:10Z</time>
      </trkpt>
      <trkpt lat="46.77977" lon="-0.83389">
        <ele>178.2</ele>
        <time>2023-10-24T05:39:12Z</time>
      </trkpt>
      <trkpt lat="46.77991" lon="-0.83406">
        <ele>178</ele>
        <time>2023-10-24T05:39:24Z</time>
      </trkpt>
      <trkpt lat="46.78006" lon="-0.83423">
        <ele>177.9</ele>
        <time>2023-10-24T05:39:36Z</time>
      </trkpt>
      <trkpt lat="46.78017" lon="-0.83428">
        <ele>177.8</ele>
        <time>2023-10-24T05:39:43Z</time>
      </trkpt>
      <trkpt lat="46.78005" lon="-0.83408">
        <ele>177.9</ele>
        <time>2023-10-24T05:39:53Z</time>
      </trkpt>
      <trkpt lat="46.77996" lon="-0.83398">
        <ele>178.1</ele>
        <time>2023-10-24T05:40:02Z</time>
      </trkpt>
      <trkpt lat="46.77996" lon="-0.83398">
        <ele>178.1</ele>
        <time>2023-10-24T05:40:03Z</time>
      </trkpt>
      <trkpt lat="46.77993" lon="-0.83395">
        <ele>178.1</ele>
        <time>2023-10-24T05:40:05Z</time>
      </trkpt>
      <trkpt lat="46.77985" lon="-0.83379">
        <ele>178.2</ele>
        <time>2023-10-24T05:40:08Z</time>
      </trkpt>
      <trkpt lat="46.77982" lon="-0.83364">
        <ele>178.3</ele>
        <time>2023-10-24T05:40:10Z</time>
      </trkpt>
      <trkpt lat="46.77982" lon="-0.83349">
        <ele>178.3</ele>
        <time>2023-10-24T05:40:12Z</time>
      </trkpt>
      <trkpt lat="46.77991" lon="-0.83322">
        <ele>178.3</ele>
        <time>2023-10-24T05:40:16Z</time>
      </trkpt>
      <trkpt lat="46.77998" lon="-0.83312">
        <ele>178.4</ele>
        <time>2023-10-24T05:40:18Z</time>
      </trkpt>
      <trkpt lat="46.78007" lon="-0.83304">
        <ele>178.3</ele>
        <time>2023-10-24T05:40:20Z</time>
      </trkpt>
      <trkpt lat="46.78017" lon="-0.83301">
        <ele>178.2</ele>
        <time>2023-10-24T05:40:22Z</time>
      </trkpt>
      <trkpt lat="46.78028" lon="-0.83302">
        <ele>178.1</ele>
        <time>2023-10-24T05:40:24Z</time>
      </trkpt>
      <trkpt lat="46.78038" lon="-0.83308">
        <ele>178.1</ele>
        <time>2023-10-24T05:40:26Z</time>
      </trkpt>
      <trkpt lat="46.78055" lon="-0.83325">
        <ele>177.9</ele>
        <time>2023-10-24T05:40:30Z</time>
      </trkpt>
      <trkpt lat="46.78072" lon="-0.8334">
        <ele>177.9</ele>
        <time>2023-10-24T05:40:34Z</time>
      </trkpt>
      <trkpt lat="46.78089" lon="-0.83355">
        <ele>177.9</ele>
        <time>2023-10-24T05:40:38Z</time>
      </trkpt>
      <trkpt lat="46.78106" lon="-0.83371">
        <ele>177.9</ele>
        <time>2023-10-24T05:40:42Z</time>
      </trkpt>
      <trkpt lat="46.78112" lon="-0.83382">
        <ele>177.9</ele>
        <time>2023-10-24T05:40:44Z</time>
      </trkpt>
      <trkpt lat="46.78116" lon="-0.83395">
        <ele>177.8</ele>
        <time>2023-10-24T05:40:46Z</time>
      </trkpt>
      <trkpt lat="46.78116" lon="-0.83409">
        <ele>177.8</ele>
        <time>2023-10-24T05:40:48Z</time>
      </trkpt>
      <trkpt lat="46.78111" lon="-0.8343">
        <ele>177.8</ele>
        <time>2023-10-24T05:40:51Z</time>
      </trkpt>
      <trkpt lat="46.78104" lon="-0.83442">
        <ele>177.8</ele>
        <time>2023-10-24T05:40:53Z</time>
      </trkpt>
      <trkpt lat="46.78087" lon="-0.83461">
        <ele>177.7</ele>
        <time>2023-10-24T05:40:57Z</time>
      </trkpt>
      <trkpt lat="46.78078" lon="-0.83466">
        <ele>177.7</ele>
        <time>2023-10-24T05:40:59Z</time>
      </trkpt>
      <trkpt lat="46.78068" lon="-0.83467">
        <ele>177.7</ele>
        <time>2023-10-24T05:41:01Z</time>
      </trkpt>
      <trkpt lat="46.78059" lon="-0.83462">
        <ele>177.6</ele>
        <time>2023-10-24T05:41:03Z</time>
      </trkpt>
      <trkpt lat="46.78043" lon="-0.83444">
        <ele>177.7</ele>
        <time>2023-10-24T05:41:07Z</time>
      </trkpt>
      <trkpt lat="46.78027" lon="-0.83428">
        <ele>177.8</ele>
        <time>2023-10-24T05:41:11Z</time>
      </trkpt>
      <trkpt lat="46.78011" lon="-0.83411">
        <ele>177.9</ele>
        <time>2023-10-24T05:41:15Z</time>
      </trkpt>
      <trkpt lat="46.77996" lon="-0.83396">
        <ele>178.1</ele>
        <time>2023-10-24T05:41:19Z</time>
      </trkpt>
      <trkpt lat="46.77992" lon="-0.83391">
        <ele>178.2</ele>
        <time>2023-10-24T05:41:20Z</time>
      </trkpt>
      <trkpt lat="46.77986" lon="-0.8338">
        <ele>178.2</ele>
        <time>2023-10-24T05:41:22Z</time>
      </trkpt>
      <trkpt lat="46.77983" lon="-0.83368">
        <ele>178.3</ele>
        <time>2023-10-24T05:41:24Z</time>
      </trkpt>
      <trkpt lat="46.77982" lon="-0.83354">
        <ele>178.3</ele>
        <time>2023-10-24T05:41:26Z</time>
      </trkpt>
      <trkpt lat="46.77984" lon="-0.8334">
        <ele>178.3</ele>
        <time>2023-10-24T05:41:28Z</time>
      </trkpt>
      <trkpt lat="46.77988" lon="-0.83328">
        <ele>178.3</ele>
        <time>2023-10-24T05:41:30Z</time>
      </trkpt>
      <trkpt lat="46.77994" lon="-0.83317">
        <ele>178.4</ele>
        <time>2023-10-24T05:41:32Z</time>
      </trkpt>
      <trkpt lat="46.78004" lon="-0.83305">
        <ele>178.3</ele>
        <time>2023-10-24T05:41:35Z</time>
      </trkpt>
      <trkpt lat="46.78013" lon="-0.83301">
        <ele>178.2</ele>
        <time>2023-10-24T05:41:37Z</time>
      </trkpt>
      <trkpt lat="46.78022" lon="-0.83302">
        <ele>178.2</ele>
        <time>2023-10-24T05:41:39Z</time>
      </trkpt>
      <trkpt lat="46.78032" lon="-0.83306">
        <ele>178.1</ele>
        <time>2023-10-24T05:41:41Z</time>
      </trkpt>
      <trkpt lat="46.78049" lon="-0.8332">
        <ele>178</ele>
        <time>2023-10-24T05:41:45Z</time>
      </trkpt>
      <trkpt lat="46.78065" lon="-0.83336">
        <ele>177.9</ele>
        <time>2023-10-24T05:41:49Z</time>
      </trkpt>
      <trkpt lat="46.78081" lon="-0.83351">
        <ele>177.9</ele>
        <time>2023-10-24T05:41:53Z</time>
      </trkpt>
      <trkpt lat="46.78097" lon="-0.83366">
        <ele>177.9</ele>
        <time>2023-10-24T05:41:57Z</time>
      </trkpt>
      <trkpt lat="46.78105" lon="-0.83374">
        <ele>177.9</ele>
        <time>2023-10-24T05:41:59Z</time>
      </trkpt>
      <trkpt lat="46.78111" lon="-0.83384">
        <ele>177.9</ele>
        <time>2023-10-24T05:42:01Z</time>
      </trkpt>
      <trkpt lat="46.78114" lon="-0.83395">
        <ele>177.8</ele>
        <time>2023-10-24T05:42:03Z</time>
      </trkpt>
      <trkpt lat="46.78115" lon="-0.83408">
        <ele>177.8</ele>
        <time>2023-10-24T05:42:05Z</time>
      </trkpt>
      <trkpt lat="46.78113" lon="-0.8342">
        <ele>177.8</ele>
        <time>2023-10-24T05:42:07Z</time>
      </trkpt>
      <trkpt lat="46.78102" lon="-0.83443">
        <ele>177.8</ele>
        <time>2023-10-24T05:42:11Z</time>
      </trkpt>
      <trkpt lat="46.78094" lon="-0.83452">
        <ele>177.8</ele>
        <time>2023-10-24T05:42:13Z</time>
      </trkpt>
      <trkpt lat="46.78086" lon="-0.83459">
        <ele>177.7</ele>
        <time>2023-10-24T05:42:15Z</time>
      </trkpt>
      <trkpt lat="46.78077" lon="-0.83462">
        <ele>177.7</ele>
        <time>2023-10-24T05:42:17Z</time>
      </trkpt>
      <trkpt lat="46.78063" lon="-0.83461">
        <ele>177.7</ele>
        <time>2023-10-24T05:42:20Z</time>
      </trkpt>
      <trkpt lat="46.78055" lon="-0.83455">
        <ele>177.6</ele>
        <time>2023-10-24T05:42:22Z</time>
      </trkpt>
      <trkpt lat="46.78039" lon="-0.83439">
        <ele>177.7</ele>
        <time>2023-10-24T05:42:26Z</time>
      </trkpt>
      <trkpt lat="46.78023" lon="-0.83423">
        <ele>177.8</ele>
        <time>2023-10-24T05:42:30Z</time>
      </trkpt>
      <trkpt lat="46.78007" lon="-0.83407">
        <ele>177.8</ele>
        <time>2023-10-24T05:42:34Z</time>
      </trkpt>
      <trkpt lat="46.77998" lon="-0.834">
        <ele>177.9</ele>
        <time>2023-10-24T05:42:36Z</time>
      </trkpt>
      <trkpt lat="46.77981" lon="-0.83388">
        <ele>178</ele>
        <time>2023-10-24T05:42:42Z</time>
      </trkpt>
      <trkpt lat="46.7798" lon="-0.83389">
        <ele>178</ele>
        <time>2023-10-24T05:42:43Z</time>
      </trkpt>
      <trkpt lat="46.77993" lon="-0.83408">
        <ele>178.1</ele>
        <time>2023-10-24T05:42:55Z</time>
      </trkpt>
      <trkpt lat="46.77997" lon="-0.83413">
        <ele>178.2</ele>
        <time>2023-10-24T05:43:00Z</time>
      </trkpt>
      <trkpt lat="46.78004" lon="-0.83411">
        <ele>178.2</ele>
        <time>2023-10-24T05:43:10Z</time>
      </trkpt>
      <trkpt lat="46.78003" lon="-0.83414">
        <ele>178.2</ele>
        <time>2023-10-24T05:43:19Z</time>
      </trkpt>
      <trkpt lat="46.78001" lon="-0.83408">
        <ele>178.2</ele>
        <time>2023-10-24T05:43:23Z</time>
      </trkpt>
      <trkpt lat="46.77997" lon="-0.834">
        <ele>178.2</ele>
        <time>2023-10-24T05:43:38Z</time>
      </trkpt>
      <trkpt lat="46.7799" lon="-0.83391">
        <ele>178.3</ele>
        <time>2023-10-24T05:43:41Z</time>
      </trkpt>
      <trkpt lat="46.77982" lon="-0.83362">
        <ele>178.3</ele>
        <time>2023-10-24T05:43:45Z</time>
      </trkpt>
      <trkpt lat="46.77984" lon="-0.83346">
        <ele>178.3</ele>
        <time>2023-10-24T05:43:47Z</time>
      </trkpt>
      <trkpt lat="46.77988" lon="-0.83332">
        <ele>178.3</ele>
        <time>2023-10-24T05:43:49Z</time>
      </trkpt>
      <trkpt lat="46.77993" lon="-0.8332">
        <ele>178.4</ele>
        <time>2023-10-24T05:43:51Z</time>
      </trkpt>
      <trkpt lat="46.77999" lon="-0.83309">
        <ele>178.4</ele>
        <time>2023-10-24T05:43:53Z</time>
      </trkpt>
      <trkpt lat="46.78008" lon="-0.83303">
        <ele>178.3</ele>
        <time>2023-10-24T05:43:55Z</time>
      </trkpt>
      <trkpt lat="46.78017" lon="-0.833">
        <ele>178.2</ele>
        <time>2023-10-24T05:43:57Z</time>
      </trkpt>
      <trkpt lat="46.78028" lon="-0.83301">
        <ele>178.1</ele>
        <time>2023-10-24T05:43:59Z</time>
      </trkpt>
      <trkpt lat="46.78038" lon="-0.83307">
        <ele>178.1</ele>
        <time>2023-10-24T05:44:01Z</time>
      </trkpt>
      <trkpt lat="46.78056" lon="-0.83323">
        <ele>177.9</ele>
        <time>2023-10-24T05:44:05Z</time>
      </trkpt>
      <trkpt lat="46.78072" lon="-0.83339">
        <ele>177.9</ele>
        <time>2023-10-24T05:44:09Z</time>
      </trkpt>
      <trkpt lat="46.78089" lon="-0.83356">
        <ele>177.9</ele>
        <time>2023-10-24T05:44:13Z</time>
      </trkpt>
      <trkpt lat="46.78106" lon="-0.83372">
        <ele>177.9</ele>
        <time>2023-10-24T05:44:17Z</time>
      </trkpt>
      <trkpt lat="46.78109" lon="-0.83377">
        <ele>177.9</ele>
        <time>2023-10-24T05:44:18Z</time>
      </trkpt>
      <trkpt lat="46.78114" lon="-0.83389">
        <ele>177.9</ele>
        <time>2023-10-24T05:44:20Z</time>
      </trkpt>
      <trkpt lat="46.78117" lon="-0.83402">
        <ele>177.8</ele>
        <time>2023-10-24T05:44:22Z</time>
      </trkpt>
      <trkpt lat="46.78116" lon="-0.83415">
        <ele>177.8</ele>
        <time>2023-10-24T05:44:24Z</time>
      </trkpt>
      <trkpt lat="46.78112" lon="-0.83429">
        <ele>177.8</ele>
        <time>2023-10-24T05:44:26Z</time>
      </trkpt>
      <trkpt lat="46.78105" lon="-0.83441">
        <ele>177.8</ele>
        <time>2023-10-24T05:44:28Z</time>
      </trkpt>
      <trkpt lat="46.78097" lon="-0.83452">
        <ele>177.8</ele>
        <time>2023-10-24T05:44:30Z</time>
      </trkpt>
      <trkpt lat="46.78088" lon="-0.8346">
        <ele>177.7</ele>
        <time>2023-10-24T05:44:32Z</time>
      </trkpt>
      <trkpt lat="46.78078" lon="-0.83464">
        <ele>177.7</ele>
        <time>2023-10-24T05:44:34Z</time>
      </trkpt>
      <trkpt lat="46.78068" lon="-0.83464">
        <ele>177.7</ele>
        <time>2023-10-24T05:44:36Z</time>
      </trkpt>
      <trkpt lat="46.78059" lon="-0.83458">
        <ele>177.6</ele>
        <time>2023-10-24T05:44:38Z</time>
      </trkpt>
      <trkpt lat="46.78041" lon="-0.83442">
        <ele>177.7</ele>
        <time>2023-10-24T05:44:42Z</time>
      </trkpt>
      <trkpt lat="46.78024" lon="-0.83424">
        <ele>177.8</ele>
        <time>2023-10-24T05:44:46Z</time>
      </trkpt>
      <trkpt lat="46.78007" lon="-0.83406">
        <ele>178</ele>
        <time>2023-10-24T05:44:50Z</time>
      </trkpt>
      <trkpt lat="46.7799" lon="-0.83388">
        <ele>178.2</ele>
        <time>2023-10-24T05:44:54Z</time>
      </trkpt>
      <trkpt lat="46.77986" lon="-0.83383">
        <ele>178.2</ele>
        <time>2023-10-24T05:44:55Z</time>
      </trkpt>
      <trkpt lat="46.77981" lon="-0.83372">
        <ele>178.2</ele>
        <time>2023-10-24T05:44:57Z</time>
      </trkpt>
      <trkpt lat="46.77979" lon="-0.83358">
        <ele>178.3</ele>
        <time>2023-10-24T05:44:59Z</time>
      </trkpt>
      <trkpt lat="46.7798" lon="-0.83345">
        <ele>178.3</ele>
        <time>2023-10-24T05:45:01Z</time>
      </trkpt>
      <trkpt lat="46.77984" lon="-0.83332">
        <ele>178.3</ele>
        <time>2023-10-24T05:45:03Z</time>
      </trkpt>
      <trkpt lat="46.77992" lon="-0.83315">
        <ele>178.4</ele>
        <time>2023-10-24T05:45:06Z</time>
      </trkpt>
      <trkpt lat="46.77999" lon="-0.83306">
        <ele>178.4</ele>
        <time>2023-10-24T05:45:08Z</time>
      </trkpt>
      <trkpt lat="46.78008" lon="-0.833">
        <ele>178.3</ele>
        <time>2023-10-24T05:45:10Z</time>
      </trkpt>
      <trkpt lat="46.78017" lon="-0.83299">
        <ele>178.2</ele>
        <time>2023-10-24T05:45:12Z</time>
      </trkpt>
      <trkpt lat="46.78027" lon="-0.83301">
        <ele>178.1</ele>
        <time>2023-10-24T05:45:14Z</time>
      </trkpt>
      <trkpt lat="46.78037" lon="-0.83307">
        <ele>178.1</ele>
        <time>2023-10-24T05:45:16Z</time>
      </trkpt>
      <trkpt lat="46.78053" lon="-0.83323">
        <ele>178</ele>
        <time>2023-10-24T05:45:20Z</time>
      </trkpt>
      <trkpt lat="46.7807" lon="-0.83337">
        <ele>177.9</ele>
        <time>2023-10-24T05:45:24Z</time>
      </trkpt>
      <trkpt lat="46.78087" lon="-0.83352">
        <ele>177.9</ele>
        <time>2023-10-24T05:45:28Z</time>
      </trkpt>
      <trkpt lat="46.78103" lon="-0.83367">
        <ele>177.9</ele>
        <time>2023-10-24T05:45:32Z</time>
      </trkpt>
      <trkpt lat="46.78107" lon="-0.83372">
        <ele>177.9</ele>
        <time>2023-10-24T05:45:33Z</time>
      </trkpt>
      <trkpt lat="46.78112" lon="-0.83382">
        <ele>177.9</ele>
        <time>2023-10-24T05:45:35Z</time>
      </trkpt>
      <trkpt lat="46.78116" lon="-0.83394">
        <ele>177.8</ele>
        <time>2023-10-24T05:45:37Z</time>
      </trkpt>
      <trkpt lat="46.78116" lon="-0.83408">
        <ele>177.8</ele>
        <time>2023-10-24T05:45:39Z</time>
      </trkpt>
      <trkpt lat="46.78114" lon="-0.8342">
        <ele>177.8</ele>
        <time>2023-10-24T05:45:41Z</time>
      </trkpt>
      <trkpt lat="46.78105" lon="-0.83438">
        <ele>177.8</ele>
        <time>2023-10-24T05:45:44Z</time>
      </trkpt>
      <trkpt lat="46.78098" lon="-0.83449">
        <ele>177.8</ele>
        <time>2023-10-24T05:45:46Z</time>
      </trkpt>
      <trkpt lat="46.7809" lon="-0.83457">
        <ele>177.7</ele>
        <time>2023-10-24T05:45:48Z</time>
      </trkpt>
      <trkpt lat="46.78076" lon="-0.83462">
        <ele>177.7</ele>
        <time>2023-10-24T05:45:51Z</time>
      </trkpt>
      <trkpt lat="46.78067" lon="-0.83461">
        <ele>177.7</ele>
        <time>2023-10-24T05:45:53Z</time>
      </trkpt>
      <trkpt lat="46.78058" lon="-0.83456">
        <ele>177.6</ele>
        <time>2023-10-24T05:45:55Z</time>
      </trkpt>
      <trkpt lat="46.78042" lon="-0.8344">
        <ele>177.7</ele>
        <time>2023-10-24T05:45:59Z</time>
      </trkpt>
      <trkpt lat="46.78025" lon="-0.83422">
        <ele>177.8</ele>
        <time>2023-10-24T05:46:03Z</time>
      </trkpt>
      <trkpt lat="46.78008" lon="-0.83405">
        <ele>178</ele>
        <time>2023-10-24T05:46:07Z</time>
      </trkpt>
      <trkpt lat="46.77996" lon="-0.83394">
        <ele>178.1</ele>
        <time>2023-10-24T05:46:10Z</time>
      </trkpt>
      <trkpt lat="46.77987" lon="-0.83384">
        <ele>178.2</ele>
        <time>2023-10-24T05:46:13Z</time>
      </trkpt>
      <trkpt lat="46.77977" lon="-0.83378">
        <ele>178.2</ele>
        <time>2023-10-24T05:46:18Z</time>
      </trkpt>
      <trkpt lat="46.77976" lon="-0.83383">
        <ele>178.2</ele>
        <time>2023-10-24T05:46:20Z</time>
      </trkpt>
      <trkpt lat="46.77989" lon="-0.83402">
        <ele>178.1</ele>
        <time>2023-10-24T05:46:31Z</time>
      </trkpt>
      <trkpt lat="46.78003" lon="-0.83419">
        <ele>177.9</ele>
        <time>2023-10-24T05:46:45Z</time>
      </trkpt>
      <trkpt lat="46.78012" lon="-0.83425">
        <ele>177.8</ele>
        <time>2023-10-24T05:46:52Z</time>
      </trkpt>
      <trkpt lat="46.78013" lon="-0.83422">
        <ele>177.8</ele>
        <time>2023-10-24T05:46:54Z</time>
      </trkpt>
      <trkpt lat="46.7801" lon="-0.83418">
        <ele>177.9</ele>
        <time>2023-10-24T05:46:58Z</time>
      </trkpt>
      <trkpt lat="46.77996" lon="-0.83401">
        <ele>178.1</ele>
        <time>2023-10-24T05:47:10Z</time>
      </trkpt>
      <trkpt lat="46.77983" lon="-0.83375">
        <ele>178.2</ele>
        <time>2023-10-24T05:47:15Z</time>
      </trkpt>
      <trkpt lat="46.77981" lon="-0.83359">
        <ele>178.3</ele>
        <time>2023-10-24T05:47:17Z</time>
      </trkpt>
      <trkpt lat="46.77984" lon="-0.83344">
        <ele>178.3</ele>
        <time>2023-10-24T05:47:19Z</time>
      </trkpt>
      <trkpt lat="46.77991" lon="-0.83324">
        <ele>178.3</ele>
        <time>2023-10-24T05:47:22Z</time>
      </trkpt>
      <trkpt lat="46.77997" lon="-0.83313">
        <ele>178.4</ele>
        <time>2023-10-24T05:47:24Z</time>
      </trkpt>
      <trkpt lat="46.78005" lon="-0.83305">
        <ele>178.3</ele>
        <time>2023-10-24T05:47:26Z</time>
      </trkpt>
      <trkpt lat="46.78015" lon="-0.83301">
        <ele>178.2</ele>
        <time>2023-10-24T05:47:28Z</time>
      </trkpt>
      <trkpt lat="46.78025" lon="-0.83302">
        <ele>178.1</ele>
        <time>2023-10-24T05:47:30Z</time>
      </trkpt>
      <trkpt lat="46.78035" lon="-0.83307">
        <ele>178.1</ele>
        <time>2023-10-24T05:47:32Z</time>
      </trkpt>
      <trkpt lat="46.78052" lon="-0.83323">
        <ele>178</ele>
        <time>2023-10-24T05:47:36Z</time>
      </trkpt>
      <trkpt lat="46.78068" lon="-0.83339">
        <ele>177.9</ele>
        <time>2023-10-24T05:47:40Z</time>
      </trkpt>
      <trkpt lat="46.78084" lon="-0.83356">
        <ele>177.9</ele>
        <time>2023-10-24T05:47:44Z</time>
      </trkpt>
      <trkpt lat="46.78101" lon="-0.83373">
        <ele>177.9</ele>
        <time>2023-10-24T05:47:48Z</time>
      </trkpt>
      <trkpt lat="46.78105" lon="-0.83377">
        <ele>177.9</ele>
        <time>2023-10-24T05:47:49Z</time>
      </trkpt>
      <trkpt lat="46.78111" lon="-0.83389">
        <ele>177.9</ele>
        <time>2023-10-24T05:47:51Z</time>
      </trkpt>
      <trkpt lat="46.78113" lon="-0.83402">
        <ele>177.8</ele>
        <time>2023-10-24T05:47:53Z</time>
      </trkpt>
      <trkpt lat="46.78113" lon="-0.83416">
        <ele>177.8</ele>
        <time>2023-10-24T05:47:55Z</time>
      </trkpt>
      <trkpt lat="46.7811" lon="-0.83429">
        <ele>177.8</ele>
        <time>2023-10-24T05:47:57Z</time>
      </trkpt>
      <trkpt lat="46.78106" lon="-0.8344">
        <ele>177.8</ele>
        <time>2023-10-24T05:47:59Z</time>
      </trkpt>
      <trkpt lat="46.78098" lon="-0.83451">
        <ele>177.8</ele>
        <time>2023-10-24T05:48:01Z</time>
      </trkpt>
      <trkpt lat="46.78089" lon="-0.83459">
        <ele>177.8</ele>
        <time>2023-10-24T05:48:03Z</time>
      </trkpt>
      <trkpt lat="46.7808" lon="-0.83464">
        <ele>177.7</ele>
        <time>2023-10-24T05:48:05Z</time>
      </trkpt>
      <trkpt lat="46.7807" lon="-0.83465">
        <ele>177.7</ele>
        <time>2023-10-24T05:48:07Z</time>
      </trkpt>
      <trkpt lat="46.7806" lon="-0.83461">
        <ele>177.7</ele>
        <time>2023-10-24T05:48:09Z</time>
      </trkpt>
      <trkpt lat="46.78043" lon="-0.83444">
        <ele>177.7</ele>
        <time>2023-10-24T05:48:13Z</time>
      </trkpt>
      <trkpt lat="46.78026" lon="-0.83426">
        <ele>177.8</ele>
        <time>2023-10-24T05:48:17Z</time>
      </trkpt>
      <trkpt lat="46.78009" lon="-0.83409">
        <ele>178</ele>
        <time>2023-10-24T05:48:21Z</time>
      </trkpt>
      <trkpt lat="46.77992" lon="-0.83392">
        <ele>178.2</ele>
        <time>2023-10-24T05:48:25Z</time>
      </trkpt>
      <trkpt lat="46.77989" lon="-0.83387">
        <ele>178.2</ele>
        <time>2023-10-24T05:48:26Z</time>
      </trkpt>
      <trkpt lat="46.77983" lon="-0.83376">
        <ele>178.2</ele>
        <time>2023-10-24T05:48:28Z</time>
      </trkpt>
      <trkpt lat="46.7798" lon="-0.83362">
        <ele>178.3</ele>
        <time>2023-10-24T05:48:30Z</time>
      </trkpt>
      <trkpt lat="46.7798" lon="-0.83348">
        <ele>178.3</ele>
        <time>2023-10-24T05:48:32Z</time>
      </trkpt>
      <trkpt lat="46.77984" lon="-0.83335">
        <ele>178.3</ele>
        <time>2023-10-24T05:48:34Z</time>
      </trkpt>
      <trkpt lat="46.77992" lon="-0.83319">
        <ele>178.4</ele>
        <time>2023-10-24T05:48:37Z</time>
      </trkpt>
      <trkpt lat="46.78003" lon="-0.83306">
        <ele>178.3</ele>
        <time>2023-10-24T05:48:40Z</time>
      </trkpt>
      <trkpt lat="46.78011" lon="-0.83301">
        <ele>178.2</ele>
        <time>2023-10-24T05:48:42Z</time>
      </trkpt>
      <trkpt lat="46.7802" lon="-0.833">
        <ele>178.2</ele>
        <time>2023-10-24T05:48:44Z</time>
      </trkpt>
      <trkpt lat="46.7803" lon="-0.83304">
        <ele>178.1</ele>
        <time>2023-10-24T05:48:46Z</time>
      </trkpt>
      <trkpt lat="46.78047" lon="-0.8332">
        <ele>178</ele>
        <time>2023-10-24T05:48:50Z</time>
      </trkpt>
      <trkpt lat="46.78063" lon="-0.83335">
        <ele>177.9</ele>
        <time>2023-10-24T05:48:54Z</time>
      </trkpt>
      <trkpt lat="46.78079" lon="-0.8335">
        <ele>177.9</ele>
        <time>2023-10-24T05:48:58Z</time>
      </trkpt>
      <trkpt lat="46.78096" lon="-0.83365">
        <ele>177.9</ele>
        <time>2023-10-24T05:49:02Z</time>
      </trkpt>
      <trkpt lat="46.78107" lon="-0.83378">
        <ele>177.9</ele>
        <time>2023-10-24T05:49:05Z</time>
      </trkpt>
      <trkpt lat="46.78112" lon="-0.83389">
        <ele>177.9</ele>
        <time>2023-10-24T05:49:07Z</time>
      </trkpt>
      <trkpt lat="46.78114" lon="-0.83402">
        <ele>177.8</ele>
        <time>2023-10-24T05:49:09Z</time>
      </trkpt>
      <trkpt lat="46.78115" lon="-0.83415">
        <ele>177.8</ele>
        <time>2023-10-24T05:49:11Z</time>
      </trkpt>
      <trkpt lat="46.78112" lon="-0.83428">
        <ele>177.8</ele>
        <time>2023-10-24T05:49:13Z</time>
      </trkpt>
      <trkpt lat="46.78107" lon="-0.8344">
        <ele>177.8</ele>
        <time>2023-10-24T05:49:15Z</time>
      </trkpt>
      <trkpt lat="46.78096" lon="-0.83456">
        <ele>177.8</ele>
        <time>2023-10-24T05:49:18Z</time>
      </trkpt>
      <trkpt lat="46.78087" lon="-0.83463">
        <ele>177.7</ele>
        <time>2023-10-24T05:49:20Z</time>
      </trkpt>
      <trkpt lat="46.78078" lon="-0.83467">
        <ele>177.7</ele>
        <time>2023-10-24T05:49:22Z</time>
      </trkpt>
      <trkpt lat="46.78069" lon="-0.83466">
        <ele>177.7</ele>
        <time>2023-10-24T05:49:24Z</time>
      </trkpt>
      <trkpt lat="46.7806" lon="-0.83461">
        <ele>177.7</ele>
        <time>2023-10-24T05:49:26Z</time>
      </trkpt>
      <trkpt lat="46.78043" lon="-0.83445">
        <ele>177.7</ele>
        <time>2023-10-24T05:49:30Z</time>
      </trkpt>
      <trkpt lat="46.78027" lon="-0.83428">
        <ele>177.8</ele>
        <time>2023-10-24T05:49:34Z</time>
      </trkpt>
      <trkpt lat="46.78011" lon="-0.83411">
        <ele>177.8</ele>
        <time>2023-10-24T05:49:38Z</time>
      </trkpt>
      <trkpt lat="46.77999" lon="-0.83399">
        <ele>177.9</ele>
        <time>2023-10-24T05:49:41Z</time>
      </trkpt>
      <trkpt lat="46.77983" lon="-0.83383">
        <ele>178</ele>
        <time>2023-10-24T05:49:46Z</time>
      </trkpt>
      <trkpt lat="46.77979" lon="-0.83381">
        <ele>178</ele>
        <time>2023-10-24T05:49:48Z</time>
      </trkpt>
      <trkpt lat="46.77978" lon="-0.83385">
        <ele>178</ele>
        <time>2023-10-24T05:49:50Z</time>
      </trkpt>
      <trkpt lat="46.77992" lon="-0.83404">
        <ele>178.1</ele>
        <time>2023-10-24T05:50:03Z</time>
      </trkpt>
      <trkpt lat="46.78001" lon="-0.83413">
        <ele>178.2</ele>
        <time>2023-10-24T05:50:13Z</time>
      </trkpt>
      <trkpt lat="46.78011" lon="-0.83424">
        <ele>178.2</ele>
        <time>2023-10-24T05:50:24Z</time>
      </trkpt>
      <trkpt lat="46.78013" lon="-0.8342">
        <ele>178.2</ele>
        <time>2023-10-24T05:50:26Z</time>
      </trkpt>
      <trkpt lat="46.78012" lon="-0.83416">
        <ele>178.2</ele>
        <time>2023-10-24T05:50:28Z</time>
      </trkpt>
      <trkpt lat="46.77997" lon="-0.834">
        <ele>178.3</ele>
        <time>2023-10-24T05:50:39Z</time>
      </trkpt>
      <trkpt lat="46.77995" lon="-0.83398">
        <ele>178.3</ele>
        <time>2023-10-24T05:50:41Z</time>
      </trkpt>
      <trkpt lat="46.77994" lon="-0.83397">
        <ele>178.3</ele>
        <time>2023-10-24T05:50:42Z</time>
      </trkpt>
      <trkpt lat="46.77985" lon="-0.83376">
        <ele>178.3</ele>
        <time>2023-10-24T05:50:46Z</time>
      </trkpt>
      <trkpt lat="46.77982" lon="-0.8336">
        <ele>178.3</ele>
        <time>2023-10-24T05:50:48Z</time>
      </trkpt>
      <trkpt lat="46.77983" lon="-0.83345">
        <ele>178.3</ele>
        <time>2023-10-24T05:50:50Z</time>
      </trkpt>
      <trkpt lat="46.77989" lon="-0.83325">
        <ele>178.4</ele>
        <time>2023-10-24T05:50:53Z</time>
      </trkpt>
      <trkpt lat="46.77995" lon="-0.83314">
        <ele>178.4</ele>
        <time>2023-10-24T05:50:55Z</time>
      </trkpt>
      <trkpt lat="46.78003" lon="-0.83305">
        <ele>178.3</ele>
        <time>2023-10-24T05:50:57Z</time>
      </trkpt>
      <trkpt lat="46.78012" lon="-0.83301">
        <ele>178.2</ele>
        <time>2023-10-24T05:50:59Z</time>
      </trkpt>
      <trkpt lat="46.78022" lon="-0.833">
        <ele>178.2</ele>
        <time>2023-10-24T05:51:01Z</time>
      </trkpt>
      <trkpt lat="46.78032" lon="-0.83305">
        <ele>178.1</ele>
        <time>2023-10-24T05:51:03Z</time>
      </trkpt>
      <trkpt lat="46.7805" lon="-0.83322">
        <ele>178</ele>
        <time>2023-10-24T05:51:07Z</time>
      </trkpt>
      <trkpt lat="46.78067" lon="-0.83338">
        <ele>177.9</ele>
        <time>2023-10-24T05:51:11Z</time>
      </trkpt>
      <trkpt lat="46.78084" lon="-0.83355">
        <ele>177.9</ele>
        <time>2023-10-24T05:51:15Z</time>
      </trkpt>
      <trkpt lat="46.78101" lon="-0.83371">
        <ele>177.9</ele>
        <time>2023-10-24T05:51:19Z</time>
      </trkpt>
      <trkpt lat="46.78108" lon="-0.83381">
        <ele>177.9</ele>
        <time>2023-10-24T05:51:21Z</time>
      </trkpt>
      <trkpt lat="46.78112" lon="-0.83393">
        <ele>177.9</ele>
        <time>2023-10-24T05:51:23Z</time>
      </trkpt>
      <trkpt lat="46.78114" lon="-0.83407">
        <ele>177.8</ele>
        <time>2023-10-24T05:51:25Z</time>
      </trkpt>
      <trkpt lat="46.78113" lon="-0.83421">
        <ele>177.8</ele>
        <time>2023-10-24T05:51:27Z</time>
      </trkpt>
      <trkpt lat="46.78108" lon="-0.83434">
        <ele>177.8</ele>
        <time>2023-10-24T05:51:29Z</time>
      </trkpt>
      <trkpt lat="46.78102" lon="-0.83447">
        <ele>177.8</ele>
        <time>2023-10-24T05:51:31Z</time>
      </trkpt>
      <trkpt lat="46.78093" lon="-0.83457">
        <ele>177.8</ele>
        <time>2023-10-24T05:51:33Z</time>
      </trkpt>
      <trkpt lat="46.78084" lon="-0.83464">
        <ele>177.7</ele>
        <time>2023-10-24T05:51:35Z</time>
      </trkpt>
      <trkpt lat="46.78074" lon="-0.83467">
        <ele>177.7</ele>
        <time>2023-10-24T05:51:37Z</time>
      </trkpt>
      <trkpt lat="46.78064" lon="-0.83465">
        <ele>177.7</ele>
        <time>2023-10-24T05:51:39Z</time>
      </trkpt>
      <trkpt lat="46.78056" lon="-0.83458">
        <ele>177.6</ele>
        <time>2023-10-24T05:51:41Z</time>
      </trkpt>
      <trkpt lat="46.78039" lon="-0.8344">
        <ele>177.8</ele>
        <time>2023-10-24T05:51:45Z</time>
      </trkpt>
      <trkpt lat="46.78023" lon="-0.83423">
        <ele>177.8</ele>
        <time>2023-10-24T05:51:49Z</time>
      </trkpt>
      <trkpt lat="46.78007" lon="-0.83405">
        <ele>178</ele>
        <time>2023-10-24T05:51:53Z</time>
      </trkpt>
      <trkpt lat="46.77992" lon="-0.83388">
        <ele>178.2</ele>
        <time>2023-10-24T05:51:57Z</time>
      </trkpt>
      <trkpt lat="46.77988" lon="-0.83383">
        <ele>178.2</ele>
        <time>2023-10-24T05:51:58Z</time>
      </trkpt>
      <trkpt lat="46.77984" lon="-0.8337">
        <ele>178.3</ele>
        <time>2023-10-24T05:52:00Z</time>
      </trkpt>
      <trkpt lat="46.77982" lon="-0.83358">
        <ele>178.3</ele>
        <time>2023-10-24T05:52:02Z</time>
      </trkpt>
      <trkpt lat="46.77983" lon="-0.83345">
        <ele>178.3</ele>
        <time>2023-10-24T05:52:04Z</time>
      </trkpt>
      <trkpt lat="46.77986" lon="-0.83332">
        <ele>178.3</ele>
        <time>2023-10-24T05:52:06Z</time>
      </trkpt>
      <trkpt lat="46.77991" lon="-0.83321">
        <ele>178.3</ele>
        <time>2023-10-24T05:52:08Z</time>
      </trkpt>
      <trkpt lat="46.77998" lon="-0.83312">
        <ele>178.4</ele>
        <time>2023-10-24T05:52:10Z</time>
      </trkpt>
      <trkpt lat="46.78006" lon="-0.83305">
        <ele>178.3</ele>
        <time>2023-10-24T05:52:12Z</time>
      </trkpt>
      <trkpt lat="46.78015" lon="-0.83302">
        <ele>178.2</ele>
        <time>2023-10-24T05:52:14Z</time>
      </trkpt>
      <trkpt lat="46.78025" lon="-0.83303">
        <ele>178.1</ele>
        <time>2023-10-24T05:52:16Z</time>
      </trkpt>
      <trkpt lat="46.78034" lon="-0.83307">
        <ele>178.1</ele>
        <time>2023-10-24T05:52:18Z</time>
      </trkpt>
      <trkpt lat="46.78051" lon="-0.83322">
        <ele>178</ele>
        <time>2023-10-24T05:52:22Z</time>
      </trkpt>
      <trkpt lat="46.78067" lon="-0.83338">
        <ele>177.9</ele>
        <time>2023-10-24T05:52:26Z</time>
      </trkpt>
      <trkpt lat="46.78083" lon="-0.83353">
        <ele>177.9</ele>
        <time>2023-10-24T05:52:30Z</time>
      </trkpt>
      <trkpt lat="46.78099" lon="-0.83368">
        <ele>177.9</ele>
        <time>2023-10-24T05:52:34Z</time>
      </trkpt>
      <trkpt lat="46.78103" lon="-0.83372">
        <ele>177.9</ele>
        <time>2023-10-24T05:52:35Z</time>
      </trkpt>
      <trkpt lat="46.78109" lon="-0.83381">
        <ele>177.9</ele>
        <time>2023-10-24T05:52:37Z</time>
      </trkpt>
      <trkpt lat="46.78113" lon="-0.83394">
        <ele>177.8</ele>
        <time>2023-10-24T05:52:39Z</time>
      </trkpt>
      <trkpt lat="46.78114" lon="-0.83406">
        <ele>177.8</ele>
        <time>2023-10-24T05:52:41Z</time>
      </trkpt>
      <trkpt lat="46.78112" lon="-0.83419">
        <ele>177.8</ele>
        <time>2023-10-24T05:52:43Z</time>
      </trkpt>
      <trkpt lat="46.78108" lon="-0.83431">
        <ele>177.8</ele>
        <time>2023-10-24T05:52:45Z</time>
      </trkpt>
      <trkpt lat="46.78098" lon="-0.83447">
        <ele>177.8</ele>
        <time>2023-10-24T05:52:48Z</time>
      </trkpt>
      <trkpt lat="46.7809" lon="-0.83456">
        <ele>177.8</ele>
        <time>2023-10-24T05:52:50Z</time>
      </trkpt>
      <trkpt lat="46.78081" lon="-0.83462">
        <ele>177.7</ele>
        <time>2023-10-24T05:52:52Z</time>
      </trkpt>
      <trkpt lat="46.78067" lon="-0.83462">
        <ele>177.7</ele>
        <time>2023-10-24T05:52:55Z</time>
      </trkpt>
      <trkpt lat="46.78058" lon="-0.83456">
        <ele>177.6</ele>
        <time>2023-10-24T05:52:57Z</time>
      </trkpt>
      <trkpt lat="46.78042" lon="-0.83439">
        <ele>177.7</ele>
        <time>2023-10-24T05:53:01Z</time>
      </trkpt>
      <trkpt lat="46.78026" lon="-0.83421">
        <ele>177.8</ele>
        <time>2023-10-24T05:53:05Z</time>
      </trkpt>
      <trkpt lat="46.7801" lon="-0.83404">
        <ele>177.8</ele>
        <time>2023-10-24T05:53:09Z</time>
      </trkpt>
      <trkpt lat="46.77997" lon="-0.83392">
        <ele>177.9</ele>
        <time>2023-10-24T05:53:12Z</time>
      </trkpt>
      <trkpt lat="46.77981" lon="-0.83376">
        <ele>178</ele>
        <time>2023-10-24T05:53:18Z</time>
      </trkpt>
      <trkpt lat="46.77975" lon="-0.83378">
        <ele>178</ele>
        <time>2023-10-24T05:53:22Z</time>
      </trkpt>
      <trkpt lat="46.77975" lon="-0.83383">
        <ele>178</ele>
        <time>2023-10-24T05:53:24Z</time>
      </trkpt>
      <trkpt lat="46.7799" lon="-0.83399">
        <ele>178.1</ele>
        <time>2023-10-24T05:53:37Z</time>
      </trkpt>
      <trkpt lat="46.78004" lon="-0.83417">
        <ele>178.2</ele>
        <time>2023-10-24T05:53:51Z</time>
      </trkpt>
      <trkpt lat="46.7801" lon="-0.8342">
        <ele>178.2</ele>
        <time>2023-10-24T05:53:57Z</time>
      </trkpt>
      <trkpt lat="46.7801" lon="-0.83416">
        <ele>178.2</ele>
        <time>2023-10-24T05:53:59Z</time>
      </trkpt>
      <trkpt lat="46.77996" lon="-0.834">
        <ele>178.3</ele>
        <time>2023-10-24T05:54:09Z</time>
      </trkpt>
      <trkpt lat="46.77995" lon="-0.83399">
        <ele>178.3</ele>
        <time>2023-10-24T05:54:11Z</time>
      </trkpt>
      <trkpt lat="46.77995" lon="-0.83399">
        <ele>178.3</ele>
        <time>2023-10-24T05:54:12Z</time>
      </trkpt>
      <trkpt lat="46.77994" lon="-0.83398">
        <ele>178.3</ele>
        <time>2023-10-24T05:54:13Z</time>
      </trkpt>
      <trkpt lat="46.77989" lon="-0.8339">
        <ele>178.3</ele>
        <time>2023-10-24T05:54:15Z</time>
      </trkpt>
      <trkpt lat="46.77981" lon="-0.83369">
        <ele>178.3</ele>
        <time>2023-10-24T05:54:18Z</time>
      </trkpt>
      <trkpt lat="46.77981" lon="-0.83354">
        <ele>178.3</ele>
        <time>2023-10-24T05:54:20Z</time>
      </trkpt>
      <trkpt lat="46.77984" lon="-0.83339">
        <ele>178.3</ele>
        <time>2023-10-24T05:54:22Z</time>
      </trkpt>
      <trkpt lat="46.77989" lon="-0.83325">
        <ele>178.4</ele>
        <time>2023-10-24T05:54:24Z</time>
      </trkpt>
      <trkpt lat="46.77996" lon="-0.83314">
        <ele>178.4</ele>
        <time>2023-10-24T05:54:26Z</time>
      </trkpt>
      <trkpt lat="46.78003" lon="-0.83306">
        <ele>178.3</ele>
        <time>2023-10-24T05:54:28Z</time>
      </trkpt>
      <trkpt lat="46.78012" lon="-0.83301">
        <ele>178.2</ele>
        <time>2023-10-24T05:54:30Z</time>
      </trkpt>
      <trkpt lat="46.78022" lon="-0.83301">
        <ele>178.2</ele>
        <time>2023-10-24T05:54:32Z</time>
      </trkpt>
      <trkpt lat="46.78033" lon="-0.83305">
        <ele>178.1</ele>
        <time>2023-10-24T05:54:34Z</time>
      </trkpt>
      <trkpt lat="46.78051" lon="-0.83321">
        <ele>178</ele>
        <time>2023-10-24T05:54:38Z</time>
      </trkpt>
      <trkpt lat="46.78069" lon="-0.83338">
        <ele>177.9</ele>
        <time>2023-10-24T05:54:42Z</time>
      </trkpt>
      <trkpt lat="46.78087" lon="-0.83354">
        <ele>177.9</ele>
        <time>2023-10-24T05:54:46Z</time>
      </trkpt>
      <trkpt lat="46.78104" lon="-0.83371">
        <ele>177.9</ele>
        <time>2023-10-24T05:54:50Z</time>
      </trkpt>
      <trkpt lat="46.78107" lon="-0.83376">
        <ele>177.9</ele>
        <time>2023-10-24T05:54:51Z</time>
      </trkpt>
      <trkpt lat="46.78113" lon="-0.83388">
        <ele>177.9</ele>
        <time>2023-10-24T05:54:53Z</time>
      </trkpt>
      <trkpt lat="46.78114" lon="-0.83402">
        <ele>177.8</ele>
        <time>2023-10-24T05:54:55Z</time>
      </trkpt>
      <trkpt lat="46.78113" lon="-0.83416">
        <ele>177.8</ele>
        <time>2023-10-24T05:54:57Z</time>
      </trkpt>
      <trkpt lat="46.78106" lon="-0.83436">
        <ele>177.8</ele>
        <time>2023-10-24T05:55:00Z</time>
      </trkpt>
      <trkpt lat="46.7809" lon="-0.83458">
        <ele>177.8</ele>
        <time>2023-10-24T05:55:04Z</time>
      </trkpt>
      <trkpt lat="46.78081" lon="-0.83464">
        <ele>177.7</ele>
        <time>2023-10-24T05:55:06Z</time>
      </trkpt>
      <trkpt lat="46.78071" lon="-0.83466">
        <ele>177.7</ele>
        <time>2023-10-24T05:55:08Z</time>
      </trkpt>
      <trkpt lat="46.78062" lon="-0.83463">
        <ele>177.7</ele>
        <time>2023-10-24T05:55:10Z</time>
      </trkpt>
      <trkpt lat="46.78045" lon="-0.83447">
        <ele>177.7</ele>
        <time>2023-10-24T05:55:14Z</time>
      </trkpt>
      <trkpt lat="46.78029" lon="-0.83428">
        <ele>177.8</ele>
        <time>2023-10-24T05:55:18Z</time>
      </trkpt>
      <trkpt lat="46.78013" lon="-0.83412">
        <ele>177.9</ele>
        <time>2023-10-24T05:55:22Z</time>
      </trkpt>
      <trkpt lat="46.77998" lon="-0.83395">
        <ele>178.1</ele>
        <time>2023-10-24T05:55:26Z</time>
      </trkpt>
      <trkpt lat="46.7799" lon="-0.83385">
        <ele>178.2</ele>
        <time>2023-10-24T05:55:28Z</time>
      </trkpt>
      <trkpt lat="46.77984" lon="-0.83373">
        <ele>178.2</ele>
        <time>2023-10-24T05:55:30Z</time>
      </trkpt>
      <trkpt lat="46.77981" lon="-0.8336">
        <ele>178.3</ele>
        <time>2023-10-24T05:55:32Z</time>
      </trkpt>
      <trkpt lat="46.77981" lon="-0.83347">
        <ele>178.3</ele>
        <time>2023-10-24T05:55:34Z</time>
      </trkpt>
      <trkpt lat="46.77984" lon="-0.83335">
        <ele>178.3</ele>
        <time>2023-10-24T05:55:36Z</time>
      </trkpt>
      <trkpt lat="46.77989" lon="-0.83323">
        <ele>178.3</ele>
        <time>2023-10-24T05:55:38Z</time>
      </trkpt>
      <trkpt lat="46.77998" lon="-0.83309">
        <ele>178.4</ele>
        <time>2023-10-24T05:55:41Z</time>
      </trkpt>
      <trkpt lat="46.78006" lon="-0.83303">
        <ele>178.3</ele>
        <time>2023-10-24T05:55:43Z</time>
      </trkpt>
      <trkpt lat="46.78016" lon="-0.833">
        <ele>178.2</ele>
        <time>2023-10-24T05:55:45Z</time>
      </trkpt>
      <trkpt lat="46.78026" lon="-0.83301">
        <ele>178.1</ele>
        <time>2023-10-24T05:55:47Z</time>
      </trkpt>
      <trkpt lat="46.78035" lon="-0.83306">
        <ele>178.1</ele>
        <time>2023-10-24T05:55:49Z</time>
      </trkpt>
      <trkpt lat="46.78052" lon="-0.83322">
        <ele>178</ele>
        <time>2023-10-24T05:55:53Z</time>
      </trkpt>
      <trkpt lat="46.78068" lon="-0.83338">
        <ele>177.9</ele>
        <time>2023-10-24T05:55:57Z</time>
      </trkpt>
      <trkpt lat="46.78085" lon="-0.83352">
        <ele>177.9</ele>
        <time>2023-10-24T05:56:01Z</time>
      </trkpt>
      <trkpt lat="46.78102" lon="-0.83367">
        <ele>177.9</ele>
        <time>2023-10-24T05:56:05Z</time>
      </trkpt>
      <trkpt lat="46.78105" lon="-0.83372">
        <ele>177.9</ele>
        <time>2023-10-24T05:56:06Z</time>
      </trkpt>
      <trkpt lat="46.78111" lon="-0.83383">
        <ele>177.9</ele>
        <time>2023-10-24T05:56:08Z</time>
      </trkpt>
      <trkpt lat="46.78114" lon="-0.83396">
        <ele>177.8</ele>
        <time>2023-10-24T05:56:10Z</time>
      </trkpt>
      <trkpt lat="46.78114" lon="-0.8341">
        <ele>177.8</ele>
        <time>2023-10-24T05:56:12Z</time>
      </trkpt>
      <trkpt lat="46.78112" lon="-0.83423">
        <ele>177.8</ele>
        <time>2023-10-24T05:56:14Z</time>
      </trkpt>
      <trkpt lat="46.78104" lon="-0.8344">
        <ele>177.8</ele>
        <time>2023-10-24T05:56:17Z</time>
      </trkpt>
      <trkpt lat="46.78091" lon="-0.83456">
        <ele>177.8</ele>
        <time>2023-10-24T05:56:20Z</time>
      </trkpt>
      <trkpt lat="46.78081" lon="-0.83462">
        <ele>177.7</ele>
        <time>2023-10-24T05:56:22Z</time>
      </trkpt>
      <trkpt lat="46.78072" lon="-0.83463">
        <ele>177.7</ele>
        <time>2023-10-24T05:56:24Z</time>
      </trkpt>
      <trkpt lat="46.78062" lon="-0.83459">
        <ele>177.7</ele>
        <time>2023-10-24T05:56:26Z</time>
      </trkpt>
      <trkpt lat="46.78046" lon="-0.83443">
        <ele>177.7</ele>
        <time>2023-10-24T05:56:30Z</time>
      </trkpt>
      <trkpt lat="46.7803" lon="-0.83426">
        <ele>177.8</ele>
        <time>2023-10-24T05:56:34Z</time>
      </trkpt>
      <trkpt lat="46.78013" lon="-0.83408">
        <ele>177.9</ele>
        <time>2023-10-24T05:56:38Z</time>
      </trkpt>
      <trkpt lat="46.77996" lon="-0.83392">
        <ele>178.1</ele>
        <time>2023-10-24T05:56:42Z</time>
      </trkpt>
      <trkpt lat="46.77986" lon="-0.83382">
        <ele>178.2</ele>
        <time>2023-10-24T05:56:45Z</time>
      </trkpt>
      <trkpt lat="46.77976" lon="-0.83377">
        <ele>178.2</ele>
        <time>2023-10-24T05:56:50Z</time>
      </trkpt>
      <trkpt lat="46.77976" lon="-0.83385">
        <ele>178.2</ele>
        <time>2023-10-24T05:56:53Z</time>
      </trkpt>
      <trkpt lat="46.7799" lon="-0.83402">
        <ele>178.1</ele>
        <time>2023-10-24T05:57:05Z</time>
      </trkpt>
      <trkpt lat="46.77997" lon="-0.83413">
        <ele>178</ele>
        <time>2023-10-24T05:57:14Z</time>
      </trkpt>
      <trkpt lat="46.78012" lon="-0.83421">
        <ele>177.9</ele>
        <time>2023-10-24T05:57:29Z</time>
      </trkpt>
      <trkpt lat="46.78011" lon="-0.83417">
        <ele>177.9</ele>
        <time>2023-10-24T05:57:32Z</time>
      </trkpt>
      <trkpt lat="46.77996" lon="-0.834">
        <ele>178.1</ele>
        <time>2023-10-24T05:57:43Z</time>
      </trkpt>
      <trkpt lat="46.77985" lon="-0.83381">
        <ele>178.2</ele>
        <time>2023-10-24T05:57:47Z</time>
      </trkpt>
      <trkpt lat="46.77981" lon="-0.83366">
        <ele>178.3</ele>
        <time>2023-10-24T05:57:49Z</time>
      </trkpt>
      <trkpt lat="46.77981" lon="-0.8335">
        <ele>178.3</ele>
        <time>2023-10-24T05:57:51Z</time>
      </trkpt>
      <trkpt lat="46.77984" lon="-0.83335">
        <ele>178.3</ele>
        <time>2023-10-24T05:57:53Z</time>
      </trkpt>
      <trkpt lat="46.7799" lon="-0.83322">
        <ele>178.3</ele>
        <time>2023-10-24T05:57:55Z</time>
      </trkpt>
      <trkpt lat="46.77996" lon="-0.83311">
        <ele>178.4</ele>
        <time>2023-10-24T05:57:57Z</time>
      </trkpt>
      <trkpt lat="46.78004" lon="-0.83303">
        <ele>178.3</ele>
        <time>2023-10-24T05:57:59Z</time>
      </trkpt>
      <trkpt lat="46.78014" lon="-0.83299">
        <ele>178.2</ele>
        <time>2023-10-24T05:58:01Z</time>
      </trkpt>
      <trkpt lat="46.78024" lon="-0.83299">
        <ele>178.1</ele>
        <time>2023-10-24T05:58:03Z</time>
      </trkpt>
      <trkpt lat="46.78039" lon="-0.83308">
        <ele>178.1</ele>
        <time>2023-10-24T05:58:06Z</time>
      </trkpt>
      <trkpt lat="46.78057" lon="-0.83324">
        <ele>177.9</ele>
        <time>2023-10-24T05:58:10Z</time>
      </trkpt>
      <trkpt lat="46.78074" lon="-0.83341">
        <ele>177.9</ele>
        <time>2023-10-24T05:58:14Z</time>
      </trkpt>
      <trkpt lat="46.78092" lon="-0.83356">
        <ele>177.9</ele>
        <time>2023-10-24T05:58:18Z</time>
      </trkpt>
      <trkpt lat="46.78104" lon="-0.83369">
        <ele>177.9</ele>
        <time>2023-10-24T05:58:21Z</time>
      </trkpt>
      <trkpt lat="46.78111" lon="-0.83379">
        <ele>177.9</ele>
        <time>2023-10-24T05:58:23Z</time>
      </trkpt>
      <trkpt lat="46.78115" lon="-0.83393">
        <ele>177.8</ele>
        <time>2023-10-24T05:58:25Z</time>
      </trkpt>
      <trkpt lat="46.78117" lon="-0.83407">
        <ele>177.8</ele>
        <time>2023-10-24T05:58:27Z</time>
      </trkpt>
      <trkpt lat="46.78115" lon="-0.83422">
        <ele>177.8</ele>
        <time>2023-10-24T05:58:29Z</time>
      </trkpt>
      <trkpt lat="46.7811" lon="-0.83435">
        <ele>177.8</ele>
        <time>2023-10-24T05:58:31Z</time>
      </trkpt>
      <trkpt lat="46.78099" lon="-0.83452">
        <ele>177.8</ele>
        <time>2023-10-24T05:58:34Z</time>
      </trkpt>
      <trkpt lat="46.7809" lon="-0.8346">
        <ele>177.7</ele>
        <time>2023-10-24T05:58:36Z</time>
      </trkpt>
      <trkpt lat="46.7808" lon="-0.83464">
        <ele>177.7</ele>
        <time>2023-10-24T05:58:38Z</time>
      </trkpt>
      <trkpt lat="46.78071" lon="-0.83463">
        <ele>177.7</ele>
        <time>2023-10-24T05:58:40Z</time>
      </trkpt>
      <trkpt lat="46.78062" lon="-0.83458">
        <ele>177.7</ele>
        <time>2023-10-24T05:58:42Z</time>
      </trkpt>
      <trkpt lat="46.78044" lon="-0.8344">
        <ele>177.7</ele>
        <time>2023-10-24T05:58:46Z</time>
      </trkpt>
      <trkpt lat="46.78028" lon="-0.83422">
        <ele>177.8</ele>
        <time>2023-10-24T05:58:50Z</time>
      </trkpt>
      <trkpt lat="46.7801" lon="-0.83405">
        <ele>178</ele>
        <time>2023-10-24T05:58:54Z</time>
      </trkpt>
      <trkpt lat="46.77994" lon="-0.83389">
        <ele>178.2</ele>
        <time>2023-10-24T05:58:58Z</time>
      </trkpt>
      <trkpt lat="46.77991" lon="-0.83384">
        <ele>178.2</ele>
        <time>2023-10-24T05:58:59Z</time>
      </trkpt>
      <trkpt lat="46.77985" lon="-0.83373">
        <ele>178.2</ele>
        <time>2023-10-24T05:59:01Z</time>
      </trkpt>
      <trkpt lat="46.77982" lon="-0.8336">
        <ele>178.3</ele>
        <time>2023-10-24T05:59:03Z</time>
      </trkpt>
      <trkpt lat="46.77981" lon="-0.83347">
        <ele>178.3</ele>
        <time>2023-10-24T05:59:05Z</time>
      </trkpt>
      <trkpt lat="46.77984" lon="-0.83335">
        <ele>178.3</ele>
        <time>2023-10-24T05:59:07Z</time>
      </trkpt>
      <trkpt lat="46.77988" lon="-0.83324">
        <ele>178.3</ele>
        <time>2023-10-24T05:59:09Z</time>
      </trkpt>
      <trkpt lat="46.77994" lon="-0.83314">
        <ele>178.4</ele>
        <time>2023-10-24T05:59:11Z</time>
      </trkpt>
      <trkpt lat="46.78002" lon="-0.83306">
        <ele>178.3</ele>
        <time>2023-10-24T05:59:13Z</time>
      </trkpt>
      <trkpt lat="46.78011" lon="-0.83301">
        <ele>178.2</ele>
        <time>2023-10-24T05:59:15Z</time>
      </trkpt>
      <trkpt lat="46.78025" lon="-0.83301">
        <ele>178.1</ele>
        <time>2023-10-24T05:59:18Z</time>
      </trkpt>
      <trkpt lat="46.78035" lon="-0.83305">
        <ele>178.1</ele>
        <time>2023-10-24T05:59:20Z</time>
      </trkpt>
      <trkpt lat="46.78052" lon="-0.83319">
        <ele>178</ele>
        <time>2023-10-24T05:59:24Z</time>
      </trkpt>
      <trkpt lat="46.78069" lon="-0.83335">
        <ele>177.9</ele>
        <time>2023-10-24T05:59:28Z</time>
      </trkpt>
      <trkpt lat="46.78084" lon="-0.83351">
        <ele>177.9</ele>
        <time>2023-10-24T05:59:32Z</time>
      </trkpt>
      <trkpt lat="46.781" lon="-0.83367">
        <ele>177.9</ele>
        <time>2023-10-24T05:59:36Z</time>
      </trkpt>
      <trkpt lat="46.78107" lon="-0.83376">
        <ele>177.9</ele>
        <time>2023-10-24T05:59:38Z</time>
      </trkpt>
      <trkpt lat="46.78112" lon="-0.83387">
        <ele>177.9</ele>
        <time>2023-10-24T05:59:40Z</time>
      </trkpt>
      <trkpt lat="46.78114" lon="-0.83399">
        <ele>177.8</ele>
        <time>2023-10-24T05:59:42Z</time>
      </trkpt>
      <trkpt lat="46.78114" lon="-0.83412">
        <ele>177.8</ele>
        <time>2023-10-24T05:59:44Z</time>
      </trkpt>
      <trkpt lat="46.78112" lon="-0.83424">
        <ele>177.8</ele>
        <time>2023-10-24T05:59:46Z</time>
      </trkpt>
      <trkpt lat="46.78104" lon="-0.83441">
        <ele>177.8</ele>
        <time>2023-10-24T05:59:49Z</time>
      </trkpt>
      <trkpt lat="46.78096" lon="-0.83451">
        <ele>177.8</ele>
        <time>2023-10-24T05:59:51Z</time>
      </trkpt>
      <trkpt lat="46.78086" lon="-0.83459">
        <ele>177.7</ele>
        <time>2023-10-24T05:59:53Z</time>
      </trkpt>
      <trkpt lat="46.78076" lon="-0.83463">
        <ele>177.7</ele>
        <time>2023-10-24T05:59:55Z</time>
      </trkpt>
      <trkpt lat="46.78067" lon="-0.83462">
        <ele>177.7</ele>
        <time>2023-10-24T05:59:57Z</time>
      </trkpt>
      <trkpt lat="46.78058" lon="-0.83454">
        <ele>177.6</ele>
        <time>2023-10-24T05:59:59Z</time>
      </trkpt>
      <trkpt lat="46.78041" lon="-0.83435">
        <ele>177.8</ele>
        <time>2023-10-24T06:00:03Z</time>
      </trkpt>
      <trkpt lat="46.78024" lon="-0.83417">
        <ele>177.8</ele>
        <time>2023-10-24T06:00:07Z</time>
      </trkpt>
      <trkpt lat="46.78007" lon="-0.83399">
        <ele>177.9</ele>
        <time>2023-10-24T06:00:11Z</time>
      </trkpt>
      <trkpt lat="46.77998" lon="-0.83391">
        <ele>177.9</ele>
        <time>2023-10-24T06:00:13Z</time>
      </trkpt>
      <trkpt lat="46.77981" lon="-0.83376">
        <ele>178</ele>
        <time>2023-10-24T06:00:18Z</time>
      </trkpt>
      <trkpt lat="46.77974" lon="-0.83374">
        <ele>178.1</ele>
        <time>2023-10-24T06:00:23Z</time>
      </trkpt>
      <trkpt lat="46.77974" lon="-0.83377">
        <ele>178.1</ele>
        <time>2023-10-24T06:00:25Z</time>
      </trkpt>
      <trkpt lat="46.77986" lon="-0.83397">
        <ele>178.2</ele>
        <time>2023-10-24T06:00:37Z</time>
      </trkpt>
      <trkpt lat="46.78" lon="-0.83412">
        <ele>178.2</ele>
        <time>2023-10-24T06:00:52Z</time>
      </trkpt>
      <trkpt lat="46.77996" lon="-0.83396">
        <ele>178.3</ele>
        <time>2023-10-24T06:01:04Z</time>
      </trkpt>
      <trkpt lat="46.77996" lon="-0.83397">
        <ele>178.3</ele>
        <time>2023-10-24T06:01:13Z</time>
      </trkpt>
      <trkpt lat="46.77984" lon="-0.83371">
        <ele>178.3</ele>
        <time>2023-10-24T06:01:18Z</time>
      </trkpt>
      <trkpt lat="46.77982" lon="-0.83363">
        <ele>178.3</ele>
        <time>2023-10-24T06:01:19Z</time>
      </trkpt>
      <trkpt lat="46.77982" lon="-0.83347">
        <ele>178.3</ele>
        <time>2023-10-24T06:01:21Z</time>
      </trkpt>
      <trkpt lat="46.77989" lon="-0.83325">
        <ele>178.4</ele>
        <time>2023-10-24T06:01:24Z</time>
      </trkpt>
      <trkpt lat="46.77996" lon="-0.83313">
        <ele>178.4</ele>
        <time>2023-10-24T06:01:26Z</time>
      </trkpt>
      <trkpt lat="46.78004" lon="-0.83304">
        <ele>178.3</ele>
        <time>2023-10-24T06:01:28Z</time>
      </trkpt>
      <trkpt lat="46.78013" lon="-0.83299">
        <ele>178.2</ele>
        <time>2023-10-24T06:01:30Z</time>
      </trkpt>
      <trkpt lat="46.78024" lon="-0.83299">
        <ele>178.1</ele>
        <time>2023-10-24T06:01:32Z</time>
      </trkpt>
      <trkpt lat="46.78034" lon="-0.83303">
        <ele>178.1</ele>
        <time>2023-10-24T06:01:34Z</time>
      </trkpt>
      <trkpt lat="46.78052" lon="-0.83319">
        <ele>178</ele>
        <time>2023-10-24T06:01:38Z</time>
      </trkpt>
      <trkpt lat="46.78069" lon="-0.83335">
        <ele>177.9</ele>
        <time>2023-10-24T06:01:42Z</time>
      </trkpt>
      <trkpt lat="46.78087" lon="-0.83351">
        <ele>177.9</ele>
        <time>2023-10-24T06:01:46Z</time>
      </trkpt>
      <trkpt lat="46.78104" lon="-0.83369">
        <ele>177.9</ele>
        <time>2023-10-24T06:01:50Z</time>
      </trkpt>
      <trkpt lat="46.78107" lon="-0.83374">
        <ele>177.9</ele>
        <time>2023-10-24T06:01:51Z</time>
      </trkpt>
      <trkpt lat="46.78112" lon="-0.83387">
        <ele>177.9</ele>
        <time>2023-10-24T06:01:53Z</time>
      </trkpt>
      <trkpt lat="46.78114" lon="-0.83403">
        <ele>177.8</ele>
        <time>2023-10-24T06:01:55Z</time>
      </trkpt>
      <trkpt lat="46.78112" lon="-0.83418">
        <ele>177.8</ele>
        <time>2023-10-24T06:01:57Z</time>
      </trkpt>
      <trkpt lat="46.78108" lon="-0.83431">
        <ele>177.8</ele>
        <time>2023-10-24T06:01:59Z</time>
      </trkpt>
      <trkpt lat="46.78102" lon="-0.83444">
        <ele>177.8</ele>
        <time>2023-10-24T06:02:01Z</time>
      </trkpt>
      <trkpt lat="46.78094" lon="-0.83454">
        <ele>177.8</ele>
        <time>2023-10-24T06:02:03Z</time>
      </trkpt>
      <trkpt lat="46.78085" lon="-0.83461">
        <ele>177.7</ele>
        <time>2023-10-24T06:02:05Z</time>
      </trkpt>
      <trkpt lat="46.78075" lon="-0.83464">
        <ele>177.7</ele>
        <time>2023-10-24T06:02:07Z</time>
      </trkpt>
      <trkpt lat="46.78066" lon="-0.83462">
        <ele>177.7</ele>
        <time>2023-10-24T06:02:09Z</time>
      </trkpt>
      <trkpt lat="46.78057" lon="-0.83455">
        <ele>177.6</ele>
        <time>2023-10-24T06:02:11Z</time>
      </trkpt>
      <trkpt lat="46.78041" lon="-0.83437">
        <ele>177.8</ele>
        <time>2023-10-24T06:02:15Z</time>
      </trkpt>
      <trkpt lat="46.78023" lon="-0.83419">
        <ele>177.8</ele>
        <time>2023-10-24T06:02:19Z</time>
      </trkpt>
      <trkpt lat="46.78006" lon="-0.83401">
        <ele>178</ele>
        <time>2023-10-24T06:02:23Z</time>
      </trkpt>
      <trkpt lat="46.77994" lon="-0.83388">
        <ele>178.2</ele>
        <time>2023-10-24T06:02:26Z</time>
      </trkpt>
      <trkpt lat="46.77984" lon="-0.83371">
        <ele>178.2</ele>
        <time>2023-10-24T06:02:29Z</time>
      </trkpt>
      <trkpt lat="46.77981" lon="-0.83358">
        <ele>178.3</ele>
        <time>2023-10-24T06:02:31Z</time>
      </trkpt>
      <trkpt lat="46.77981" lon="-0.83345">
        <ele>178.3</ele>
        <time>2023-10-24T06:02:33Z</time>
      </trkpt>
      <trkpt lat="46.77984" lon="-0.83332">
        <ele>178.3</ele>
        <time>2023-10-24T06:02:35Z</time>
      </trkpt>
      <trkpt lat="46.7799" lon="-0.8332">
        <ele>178.3</ele>
        <time>2023-10-24T06:02:37Z</time>
      </trkpt>
      <trkpt lat="46.77996" lon="-0.83309">
        <ele>178.4</ele>
        <time>2023-10-24T06:02:39Z</time>
      </trkpt>
      <trkpt lat="46.78005" lon="-0.83301">
        <ele>178.3</ele>
        <time>2023-10-24T06:02:41Z</time>
      </trkpt>
      <trkpt lat="46.78014" lon="-0.83298">
        <ele>178.2</ele>
        <time>2023-10-24T06:02:43Z</time>
      </trkpt>
      <trkpt lat="46.78025" lon="-0.83299">
        <ele>178.1</ele>
        <time>2023-10-24T06:02:45Z</time>
      </trkpt>
      <trkpt lat="46.78035" lon="-0.83304">
        <ele>178.1</ele>
        <time>2023-10-24T06:02:47Z</time>
      </trkpt>
      <trkpt lat="46.78053" lon="-0.83321">
        <ele>178</ele>
        <time>2023-10-24T06:02:51Z</time>
      </trkpt>
      <trkpt lat="46.7807" lon="-0.83338">
        <ele>177.9</ele>
        <time>2023-10-24T06:02:55Z</time>
      </trkpt>
      <trkpt lat="46.78089" lon="-0.83356">
        <ele>177.9</ele>
        <time>2023-10-24T06:02:59Z</time>
      </trkpt>
      <trkpt lat="46.78107" lon="-0.83375">
        <ele>177.9</ele>
        <time>2023-10-24T06:03:03Z</time>
      </trkpt>
      <trkpt lat="46.78112" lon="-0.83387">
        <ele>177.9</ele>
        <time>2023-10-24T06:03:05Z</time>
      </trkpt>
      <trkpt lat="46.78115" lon="-0.83402">
        <ele>177.8</ele>
        <time>2023-10-24T06:03:07Z</time>
      </trkpt>
      <trkpt lat="46.78114" lon="-0.83417">
        <ele>177.8</ele>
        <time>2023-10-24T06:03:09Z</time>
      </trkpt>
      <trkpt lat="46.78111" lon="-0.83431">
        <ele>177.8</ele>
        <time>2023-10-24T06:03:11Z</time>
      </trkpt>
      <trkpt lat="46.78104" lon="-0.83443">
        <ele>177.8</ele>
        <time>2023-10-24T06:03:13Z</time>
      </trkpt>
      <trkpt lat="46.78094" lon="-0.83455">
        <ele>177.8</ele>
        <time>2023-10-24T06:03:15Z</time>
      </trkpt>
      <trkpt lat="46.78084" lon="-0.83462">
        <ele>177.7</ele>
        <time>2023-10-24T06:03:17Z</time>
      </trkpt>
      <trkpt lat="46.78074" lon="-0.83464">
        <ele>177.7</ele>
        <time>2023-10-24T06:03:19Z</time>
      </trkpt>
      <trkpt lat="46.78063" lon="-0.83461">
        <ele>177.7</ele>
        <time>2023-10-24T06:03:21Z</time>
      </trkpt>
      <trkpt lat="46.78053" lon="-0.83452">
        <ele>177.7</ele>
        <time>2023-10-24T06:03:23Z</time>
      </trkpt>
      <trkpt lat="46.78038" lon="-0.83436">
        <ele>177.8</ele>
        <time>2023-10-24T06:03:26Z</time>
      </trkpt>
      <trkpt lat="46.78024" lon="-0.8342">
        <ele>177.8</ele>
        <time>2023-10-24T06:03:29Z</time>
      </trkpt>
      <trkpt lat="46.78009" lon="-0.83403">
        <ele>178</ele>
        <time>2023-10-24T06:03:32Z</time>
      </trkpt>
      <trkpt lat="46.78" lon="-0.83394">
        <ele>178.1</ele>
        <time>2023-10-24T06:03:34Z</time>
      </trkpt>
      <trkpt lat="46.77984" lon="-0.83378">
        <ele>178.2</ele>
        <time>2023-10-24T06:03:38Z</time>
      </trkpt>
      <trkpt lat="46.77977" lon="-0.8337">
        <ele>178.2</ele>
        <time>2023-10-24T06:03:43Z</time>
      </trkpt>
      <trkpt lat="46.77975" lon="-0.83372">
        <ele>178.2</ele>
        <time>2023-10-24T06:03:45Z</time>
      </trkpt>
      <trkpt lat="46.77975" lon="-0.83375">
        <ele>178.2</ele>
        <time>2023-10-24T06:03:47Z</time>
      </trkpt>
      <trkpt lat="46.77987" lon="-0.83395">
        <ele>178.1</ele>
        <time>2023-10-24T06:03:59Z</time>
      </trkpt>
      <trkpt lat="46.78001" lon="-0.83412">
        <ele>178</ele>
        <time>2023-10-24T06:04:16Z</time>
      </trkpt>
      <trkpt lat="46.78008" lon="-0.83409">
        <ele>177.9</ele>
        <time>2023-10-24T06:04:24Z</time>
      </trkpt>
      <trkpt lat="46.78013" lon="-0.83421">
        <ele>177.8</ele>
        <time>2023-10-24T06:04:41Z</time>
      </trkpt>
      <trkpt lat="46.78021" lon="-0.83428">
        <ele>177.8</ele>
        <time>2023-10-24T06:04:48Z</time>
      </trkpt>
      <trkpt lat="46.78003" lon="-0.83418">
        <ele>178</ele>
        <time>2023-10-24T06:04:58Z</time>
      </trkpt>
      <trkpt lat="46.77991" lon="-0.83407">
        <ele>178</ele>
        <time>2023-10-24T06:05:05Z</time>
      </trkpt>
      <trkpt lat="46.77964" lon="-0.83384">
        <ele>178</ele>
        <time>2023-10-24T06:06:49Z</time>
      </trkpt>
      <trkpt lat="46.7795" lon="-0.83364">
        <ele>176.6</ele>
        <time>2023-10-24T06:06:58Z</time>
      </trkpt>
      <trkpt lat="46.77936" lon="-0.8335">
        <ele>175.3</ele>
        <time>2023-10-24T06:07:12Z</time>
      </trkpt>
      <trkpt lat="46.77923" lon="-0.83371">
        <ele>174.9</ele>
        <time>2023-10-24T06:07:20Z</time>
      </trkpt>
      <trkpt lat="46.77918" lon="-0.83397">
        <ele>174.1</ele>
        <time>2023-10-24T06:07:27Z</time>
      </trkpt>
      <trkpt lat="46.77924" lon="-0.83424">
        <ele>173.6</ele>
        <time>2023-10-24T06:07:35Z</time>
      </trkpt>
      <trkpt lat="46.7793" lon="-0.8345">
        <ele>173.2</ele>
        <time>2023-10-24T06:07:43Z</time>
      </trkpt>
      <trkpt lat="46.77935" lon="-0.83475">
        <ele>173.2</ele>
        <time>2023-10-24T06:07:50Z</time>
      </trkpt>
      <trkpt lat="46.77948" lon="-0.83496">
        <ele>173.5</ele>
        <time>2023-10-24T06:07:58Z</time>
      </trkpt>
      <trkpt lat="46.77958" lon="-0.8352">
        <ele>174</ele>
        <time>2023-10-24T06:08:06Z</time>
      </trkpt>
      <trkpt lat="46.77971" lon="-0.83539">
        <ele>175.1</ele>
        <time>2023-10-24T06:08:14Z</time>
      </trkpt>
      <trkpt lat="46.77987" lon="-0.83555">
        <ele>176.5</ele>
        <time>2023-10-24T06:08:22Z</time>
      </trkpt>
      <trkpt lat="46.78002" lon="-0.83572">
        <ele>178.1</ele>
        <time>2023-10-24T06:08:31Z</time>
      </trkpt>
      <trkpt lat="46.78018" lon="-0.83585">
        <ele>179.9</ele>
        <time>2023-10-24T06:08:40Z</time>
      </trkpt>
      <trkpt lat="46.78036" lon="-0.83599">
        <ele>182.5</ele>
        <time>2023-10-24T06:08:50Z</time>
      </trkpt>
      <trkpt lat="46.78053" lon="-0.83611">
        <ele>184.5</ele>
        <time>2023-10-24T06:09:01Z</time>
      </trkpt>
      <trkpt lat="46.78068" lon="-0.83628">
        <ele>186.6</ele>
        <time>2023-10-24T06:09:13Z</time>
      </trkpt>
      <trkpt lat="46.78079" lon="-0.8365">
        <ele>188.8</ele>
        <time>2023-10-24T06:09:24Z</time>
      </trkpt>
      <trkpt lat="46.7809" lon="-0.83672">
        <ele>191.1</ele>
        <time>2023-10-24T06:09:35Z</time>
      </trkpt>
      <trkpt lat="46.781" lon="-0.83693">
        <ele>192.8</ele>
        <time>2023-10-24T06:09:45Z</time>
      </trkpt>
      <trkpt lat="46.78109" lon="-0.83719">
        <ele>194.3</ele>
        <time>2023-10-24T06:09:54Z</time>
      </trkpt>
      <trkpt lat="46.78116" lon="-0.83744">
        <ele>195.6</ele>
        <time>2023-10-24T06:10:03Z</time>
      </trkpt>
      <trkpt lat="46.78122" lon="-0.83772">
        <ele>197.1</ele>
        <time>2023-10-24T06:10:12Z</time>
      </trkpt>
      <trkpt lat="46.7813" lon="-0.83795">
        <ele>198.5</ele>
        <time>2023-10-24T06:10:21Z</time>
      </trkpt>
      <trkpt lat="46.7814" lon="-0.83819">
        <ele>200.2</ele>
        <time>2023-10-24T06:10:31Z</time>
      </trkpt>
      <trkpt lat="46.78146" lon="-0.83845">
        <ele>201.6</ele>
        <time>2023-10-24T06:10:42Z</time>
      </trkpt>
      <trkpt lat="46.78132" lon="-0.8386">
        <ele>200.5</ele>
        <time>2023-10-24T06:10:54Z</time>
      </trkpt>
      <trkpt lat="46.78117" lon="-0.83876">
        <ele>199.6</ele>
        <time>2023-10-24T06:11:09Z</time>
      </trkpt>
      <trkpt lat="46.78099" lon="-0.83887">
        <ele>198.8</ele>
        <time>2023-10-24T06:11:15Z</time>
      </trkpt>
      <trkpt lat="46.78085" lon="-0.83896">
        <ele>198.4</ele>
        <time>2023-10-24T06:11:24Z</time>
      </trkpt>
      <trkpt lat="46.78067" lon="-0.83908">
        <ele>198</ele>
        <time>2023-10-24T06:11:38Z</time>
      </trkpt>
      <trkpt lat="46.78048" lon="-0.83918">
        <ele>197.5</ele>
        <time>2023-10-24T06:11:46Z</time>
      </trkpt>
      <trkpt lat="46.78029" lon="-0.83926">
        <ele>196.8</ele>
        <time>2023-10-24T06:11:54Z</time>
      </trkpt>
      <trkpt lat="46.78006" lon="-0.83931">
        <ele>195.9</ele>
        <time>2023-10-24T06:11:57Z</time>
      </trkpt>
      <trkpt lat="46.77988" lon="-0.8394">
        <ele>195.2</ele>
        <time>2023-10-24T06:12:04Z</time>
      </trkpt>
      <trkpt lat="46.77971" lon="-0.83954">
        <ele>194.4</ele>
        <time>2023-10-24T06:12:15Z</time>
      </trkpt>
      <trkpt lat="46.77952" lon="-0.8396">
        <ele>193.7</ele>
        <time>2023-10-24T06:12:23Z</time>
      </trkpt>
      <trkpt lat="46.77933" lon="-0.83973">
        <ele>193.2</ele>
        <time>2023-10-24T06:12:29Z</time>
      </trkpt>
      <trkpt lat="46.77917" lon="-0.83985">
        <ele>192.7</ele>
        <time>2023-10-24T06:12:34Z</time>
      </trkpt>
      <trkpt lat="46.779" lon="-0.83999">
        <ele>192.1</ele>
        <time>2023-10-24T06:12:41Z</time>
      </trkpt>
      <trkpt lat="46.77882" lon="-0.84012">
        <ele>191.4</ele>
        <time>2023-10-24T06:12:49Z</time>
      </trkpt>
      <trkpt lat="46.77865" lon="-0.84024">
        <ele>190.8</ele>
        <time>2023-10-24T06:12:56Z</time>
      </trkpt>
      <trkpt lat="46.77849" lon="-0.84041">
        <ele>189.6</ele>
        <time>2023-10-24T06:13:03Z</time>
      </trkpt>
      <trkpt lat="46.77835" lon="-0.84059">
        <ele>188.4</ele>
        <time>2023-10-24T06:13:10Z</time>
      </trkpt>
      <trkpt lat="46.77825" lon="-0.84082">
        <ele>187.2</ele>
        <time>2023-10-24T06:13:17Z</time>
      </trkpt>
      <trkpt lat="46.77814" lon="-0.84108">
        <ele>185.8</ele>
        <time>2023-10-24T06:13:24Z</time>
      </trkpt>
      <trkpt lat="46.77802" lon="-0.84132">
        <ele>184.6</ele>
        <time>2023-10-24T06:13:32Z</time>
      </trkpt>
      <trkpt lat="46.77794" lon="-0.84156">
        <ele>183.7</ele>
        <time>2023-10-24T06:13:41Z</time>
      </trkpt>
      <trkpt lat="46.77785" lon="-0.84179">
        <ele>183.1</ele>
        <time>2023-10-24T06:13:48Z</time>
      </trkpt>
      <trkpt lat="46.77779" lon="-0.84204">
        <ele>182.3</ele>
        <time>2023-10-24T06:13:56Z</time>
      </trkpt>
      <trkpt lat="46.77776" lon="-0.8423">
        <ele>181.4</ele>
        <time>2023-10-24T06:14:04Z</time>
      </trkpt>
      <trkpt lat="46.77761" lon="-0.84247">
        <ele>179.3</ele>
        <time>2023-10-24T06:14:12Z</time>
      </trkpt>
      <trkpt lat="46.77743" lon="-0.84259">
        <ele>177.3</ele>
        <time>2023-10-24T06:14:19Z</time>
      </trkpt>
      <trkpt lat="46.77728" lon="-0.84277">
        <ele>176.4</ele>
        <time>2023-10-24T06:14:26Z</time>
      </trkpt>
      <trkpt lat="46.77715" lon="-0.84297">
        <ele>175.2</ele>
        <time>2023-10-24T06:14:32Z</time>
      </trkpt>
      <trkpt lat="46.77701" lon="-0.84318">
        <ele>174</ele>
        <time>2023-10-24T06:14:39Z</time>
      </trkpt>
      <trkpt lat="46.77686" lon="-0.84336">
        <ele>172.9</ele>
        <time>2023-10-24T06:14:47Z</time>
      </trkpt>
      <trkpt lat="46.77671" lon="-0.84353">
        <ele>172</ele>
        <time>2023-10-24T06:14:54Z</time>
      </trkpt>
      <trkpt lat="46.77655" lon="-0.84371">
        <ele>171.1</ele>
        <time>2023-10-24T06:15:02Z</time>
      </trkpt>
      <trkpt lat="46.77642" lon="-0.84388">
        <ele>170.6</ele>
        <time>2023-10-24T06:15:09Z</time>
      </trkpt>
      <trkpt lat="46.77626" lon="-0.84403">
        <ele>170.2</ele>
        <time>2023-10-24T06:15:16Z</time>
      </trkpt>
      <trkpt lat="46.7761" lon="-0.84419">
        <ele>168.6</ele>
        <time>2023-10-24T06:15:23Z</time>
      </trkpt>
      <trkpt lat="46.77594" lon="-0.84433">
        <ele>167.3</ele>
        <time>2023-10-24T06:15:30Z</time>
      </trkpt>
      <trkpt lat="46.77583" lon="-0.84445">
        <ele>166.5</ele>
        <time>2023-10-24T06:15:36Z</time>
      </trkpt>
      <trkpt lat="46.77572" lon="-0.84467">
        <ele>165.5</ele>
        <time>2023-10-24T06:15:44Z</time>
      </trkpt>
      <trkpt lat="46.77557" lon="-0.84484">
        <ele>164.6</ele>
        <time>2023-10-24T06:15:52Z</time>
      </trkpt>
      <trkpt lat="46.77545" lon="-0.84506">
        <ele>163.8</ele>
        <time>2023-10-24T06:16:00Z</time>
      </trkpt>
      <trkpt lat="46.77538" lon="-0.84532">
        <ele>163.7</ele>
        <time>2023-10-24T06:16:07Z</time>
      </trkpt>
      <trkpt lat="46.77528" lon="-0.84554">
        <ele>163.7</ele>
        <time>2023-10-24T06:16:15Z</time>
      </trkpt>
      <trkpt lat="46.77513" lon="-0.84567">
        <ele>162.4</ele>
        <time>2023-10-24T06:16:23Z</time>
      </trkpt>
      <trkpt lat="46.77504" lon="-0.84594">
        <ele>160.2</ele>
        <time>2023-10-24T06:16:32Z</time>
      </trkpt>
      <trkpt lat="46.77493" lon="-0.84615">
        <ele>158.5</ele>
        <time>2023-10-24T06:16:40Z</time>
      </trkpt>
      <trkpt lat="46.77478" lon="-0.84633">
        <ele>157.3</ele>
        <time>2023-10-24T06:16:49Z</time>
      </trkpt>
      <trkpt lat="46.77467" lon="-0.84656">
        <ele>155.3</ele>
        <time>2023-10-24T06:16:57Z</time>
      </trkpt>
      <trkpt lat="46.77457" lon="-0.84678">
        <ele>153.3</ele>
        <time>2023-10-24T06:17:04Z</time>
      </trkpt>
      <trkpt lat="46.77444" lon="-0.84698">
        <ele>151.8</ele>
        <time>2023-10-24T06:17:11Z</time>
      </trkpt>
      <trkpt lat="46.7743" lon="-0.84717">
        <ele>150.9</ele>
        <time>2023-10-24T06:17:18Z</time>
      </trkpt>
      <trkpt lat="46.77417" lon="-0.84739">
        <ele>149.8</ele>
        <time>2023-10-24T06:17:25Z</time>
      </trkpt>
      <trkpt lat="46.77407" lon="-0.84763">
        <ele>149.2</ele>
        <time>2023-10-24T06:17:32Z</time>
      </trkpt>
      <trkpt lat="46.77405" lon="-0.84789">
        <ele>149.1</ele>
        <time>2023-10-24T06:17:39Z</time>
      </trkpt>
      <trkpt lat="46.77399" lon="-0.84814">
        <ele>148.8</ele>
        <time>2023-10-24T06:17:49Z</time>
      </trkpt>
      <trkpt lat="46.77381" lon="-0.84816">
        <ele>148.1</ele>
        <time>2023-10-24T06:17:57Z</time>
      </trkpt>
      <trkpt lat="46.77362" lon="-0.84828">
        <ele>146.6</ele>
        <time>2023-10-24T06:18:04Z</time>
      </trkpt>
      <trkpt lat="46.77347" lon="-0.84842">
        <ele>145.6</ele>
        <time>2023-10-24T06:18:11Z</time>
      </trkpt>
      <trkpt lat="46.77333" lon="-0.84862">
        <ele>144.9</ele>
        <time>2023-10-24T06:18:18Z</time>
      </trkpt>
      <trkpt lat="46.7732" lon="-0.84881">
        <ele>144.1</ele>
        <time>2023-10-24T06:18:25Z</time>
      </trkpt>
      <trkpt lat="46.77307" lon="-0.84899">
        <ele>143.2</ele>
        <time>2023-10-24T06:18:31Z</time>
      </trkpt>
      <trkpt lat="46.77293" lon="-0.84917">
        <ele>142.3</ele>
        <time>2023-10-24T06:18:37Z</time>
      </trkpt>
      <trkpt lat="46.77278" lon="-0.84937">
        <ele>141.4</ele>
        <time>2023-10-24T06:18:44Z</time>
      </trkpt>
      <trkpt lat="46.77265" lon="-0.84958">
        <ele>140.6</ele>
        <time>2023-10-24T06:18:51Z</time>
      </trkpt>
      <trkpt lat="46.77252" lon="-0.84981">
        <ele>139.9</ele>
        <time>2023-10-24T06:18:58Z</time>
      </trkpt>
      <trkpt lat="46.77238" lon="-0.85">
        <ele>139.4</ele>
        <time>2023-10-24T06:19:05Z</time>
      </trkpt>
      <trkpt lat="46.77225" lon="-0.85019">
        <ele>138.8</ele>
        <time>2023-10-24T06:19:11Z</time>
      </trkpt>
      <trkpt lat="46.77213" lon="-0.85044">
        <ele>138.1</ele>
        <time>2023-10-24T06:19:18Z</time>
      </trkpt>
      <trkpt lat="46.77205" lon="-0.85072">
        <ele>137.5</ele>
        <time>2023-10-24T06:19:25Z</time>
      </trkpt>
      <trkpt lat="46.77199" lon="-0.85097">
        <ele>136.7</ele>
        <time>2023-10-24T06:19:31Z</time>
      </trkpt>
      <trkpt lat="46.77193" lon="-0.85126">
        <ele>135.9</ele>
        <time>2023-10-24T06:19:38Z</time>
      </trkpt>
      <trkpt lat="46.77183" lon="-0.85148">
        <ele>135.5</ele>
        <time>2023-10-24T06:19:44Z</time>
      </trkpt>
      <trkpt lat="46.77172" lon="-0.8517">
        <ele>135.4</ele>
        <time>2023-10-24T06:19:51Z</time>
      </trkpt>
      <trkpt lat="46.77159" lon="-0.85189">
        <ele>135.7</ele>
        <time>2023-10-24T06:19:58Z</time>
      </trkpt>
      <trkpt lat="46.77144" lon="-0.85205">
        <ele>136.4</ele>
        <time>2023-10-24T06:20:05Z</time>
      </trkpt>
      <trkpt lat="46.77127" lon="-0.85219">
        <ele>137.6</ele>
        <time>2023-10-24T06:20:13Z</time>
      </trkpt>
      <trkpt lat="46.77112" lon="-0.85235">
        <ele>138.8</ele>
        <time>2023-10-24T06:20:21Z</time>
      </trkpt>
      <trkpt lat="46.77097" lon="-0.85253">
        <ele>140.3</ele>
        <time>2023-10-24T06:20:30Z</time>
      </trkpt>
      <trkpt lat="46.77083" lon="-0.85272">
        <ele>141.7</ele>
        <time>2023-10-24T06:20:39Z</time>
      </trkpt>
      <trkpt lat="46.77072" lon="-0.85294">
        <ele>142.9</ele>
        <time>2023-10-24T06:20:47Z</time>
      </trkpt>
      <trkpt lat="46.77062" lon="-0.8532">
        <ele>143.6</ele>
        <time>2023-10-24T06:20:55Z</time>
      </trkpt>
      <trkpt lat="46.77053" lon="-0.85343">
        <ele>143.9</ele>
        <time>2023-10-24T06:21:02Z</time>
      </trkpt>
      <trkpt lat="46.77041" lon="-0.85363">
        <ele>143.9</ele>
        <time>2023-10-24T06:21:09Z</time>
      </trkpt>
      <trkpt lat="46.77025" lon="-0.8538">
        <ele>143.8</ele>
        <time>2023-10-24T06:21:16Z</time>
      </trkpt>
      <trkpt lat="46.77009" lon="-0.85394">
        <ele>143.5</ele>
        <time>2023-10-24T06:21:23Z</time>
      </trkpt>
      <trkpt lat="46.76991" lon="-0.85406">
        <ele>143.4</ele>
        <time>2023-10-24T06:21:30Z</time>
      </trkpt>
      <trkpt lat="46.76974" lon="-0.85417">
        <ele>143.1</ele>
        <time>2023-10-24T06:21:37Z</time>
      </trkpt>
      <trkpt lat="46.76958" lon="-0.8543">
        <ele>142.9</ele>
        <time>2023-10-24T06:21:44Z</time>
      </trkpt>
      <trkpt lat="46.76939" lon="-0.85442">
        <ele>142.8</ele>
        <time>2023-10-24T06:21:52Z</time>
      </trkpt>
      <trkpt lat="46.76921" lon="-0.85455">
        <ele>142.7</ele>
        <time>2023-10-24T06:22:00Z</time>
      </trkpt>
      <trkpt lat="46.76903" lon="-0.85467">
        <ele>142.5</ele>
        <time>2023-10-24T06:22:07Z</time>
      </trkpt>
      <trkpt lat="46.76887" lon="-0.85478">
        <ele>142.5</ele>
        <time>2023-10-24T06:22:13Z</time>
      </trkpt>
      <trkpt lat="46.7687" lon="-0.85488">
        <ele>142.5</ele>
        <time>2023-10-24T06:22:19Z</time>
      </trkpt>
      <trkpt lat="46.76851" lon="-0.85501">
        <ele>142.5</ele>
        <time>2023-10-24T06:22:26Z</time>
      </trkpt>
      <trkpt lat="46.76834" lon="-0.85514">
        <ele>142.4</ele>
        <time>2023-10-24T06:22:33Z</time>
      </trkpt>
      <trkpt lat="46.76816" lon="-0.85526">
        <ele>142.4</ele>
        <time>2023-10-24T06:22:40Z</time>
      </trkpt>
      <trkpt lat="46.76799" lon="-0.85538">
        <ele>142.2</ele>
        <time>2023-10-24T06:22:47Z</time>
      </trkpt>
      <trkpt lat="46.76787" lon="-0.85556">
        <ele>141.8</ele>
        <time>2023-10-24T06:22:54Z</time>
      </trkpt>
      <trkpt lat="46.76795" lon="-0.8558">
        <ele>141.6</ele>
        <time>2023-10-24T06:23:00Z</time>
      </trkpt>
      <trkpt lat="46.76803" lon="-0.85604">
        <ele>141.1</ele>
        <time>2023-10-24T06:23:06Z</time>
      </trkpt>
      <trkpt lat="46.76811" lon="-0.85628">
        <ele>140.4</ele>
        <time>2023-10-24T06:23:12Z</time>
      </trkpt>
      <trkpt lat="46.7682" lon="-0.85651">
        <ele>139.6</ele>
        <time>2023-10-24T06:23:18Z</time>
      </trkpt>
      <trkpt lat="46.76829" lon="-0.85675">
        <ele>138.7</ele>
        <time>2023-10-24T06:23:24Z</time>
      </trkpt>
      <trkpt lat="46.76837" lon="-0.857">
        <ele>137.8</ele>
        <time>2023-10-24T06:23:30Z</time>
      </trkpt>
      <trkpt lat="46.76845" lon="-0.85725">
        <ele>136.8</ele>
        <time>2023-10-24T06:23:36Z</time>
      </trkpt>
      <trkpt lat="46.76851" lon="-0.85751">
        <ele>135.7</ele>
        <time>2023-10-24T06:23:42Z</time>
      </trkpt>
      <trkpt lat="46.76859" lon="-0.85777">
        <ele>134.4</ele>
        <time>2023-10-24T06:23:48Z</time>
      </trkpt>
      <trkpt lat="46.7687" lon="-0.85801">
        <ele>133.3</ele>
        <time>2023-10-24T06:23:54Z</time>
      </trkpt>
      <trkpt lat="46.7688" lon="-0.85827">
        <ele>132.5</ele>
        <time>2023-10-24T06:24:00Z</time>
      </trkpt>
      <trkpt lat="46.76891" lon="-0.85852">
        <ele>131.7</ele>
        <time>2023-10-24T06:24:06Z</time>
      </trkpt>
      <trkpt lat="46.76902" lon="-0.85875">
        <ele>131.2</ele>
        <time>2023-10-24T06:24:12Z</time>
      </trkpt>
      <trkpt lat="46.76914" lon="-0.859">
        <ele>131</ele>
        <time>2023-10-24T06:24:19Z</time>
      </trkpt>
      <trkpt lat="46.76924" lon="-0.85922">
        <ele>131.2</ele>
        <time>2023-10-24T06:24:25Z</time>
      </trkpt>
      <trkpt lat="46.76937" lon="-0.85943">
        <ele>131.8</ele>
        <time>2023-10-24T06:24:32Z</time>
      </trkpt>
      <trkpt lat="46.76941" lon="-0.85948">
        <ele>132</ele>
        <time>2023-10-24T06:24:34Z</time>
      </trkpt>
    </trkseg>
  </trk>
</gpx>